<?xml version="1.0" encoding="UTF-8"?>
<gpx xmlns="http://www.topografix.com/GPX/1/1" xmlns:gpsies="http://www.gpsies.com/GPX/1/0" creator="GPSies http://www.gpsies.com - Lauf am Gardasee 15,3km" version="1.1" xmlns:xsi="http://www.w3.org/2001/XMLSchema-instance" xsi:schemaLocation="http://www.topografix.com/GPX/1/1 http://www.topografix.com/GPX/1/1/gpx.xsd http://www.gpsies.com/GPX/1/0 http://www.gpsies.com/gpsies.xsd">
  <metadata>
    <name>Lauf am Gardasee 15,3km</name>
    <author>
      <name>Buddi</name>
      <link href="http://www.gpsies.com/mapUser.do?username=Buddi">
        <text>Buddi on GPSies.com</text>
        <type>GPSiesUserOnWeb</type>
      </link>
    </author>
    <link href="http://www.gpsies.com/map.do?fileId=utzgozvwnksvcagf">
      <text>Lauf am Gardasee 15,3km on GPSies.com</text>
      <type>trackOnWeb</type>
    </link>
    <time>2014-04-29T23:37:52Z</time>
    <extensions>
      <gpsies:property>round trip</gpsies:property>
      <gpsies:trackLengthMeter>15288.900138185578</gpsies:trackLengthMeter>
      <gpsies:totalAscentMeter>422.4998778</gpsies:totalAscentMeter>
      <gpsies:totalDescentMeter>585.9239501000002</gpsies:totalDescentMeter>
      <gpsies:minHeightMeter>-20.5310059</gpsies:minHeightMeter>
      <gpsies:maxHeightMeter>294.3007813</gpsies:maxHeightMeter>
    </extensions>
  </metadata>
  <trk>
    <name>Lauf am Gardasee 15,3km on GPSies.com</name>
    <link href="http://www.gpsies.com/map.do?fileId=utzgozvwnksvcagf">
      <type>trackOnWeb</type>
    </link>
    <link href="http://www.gpsies.com/charts/ut/map/utzgozvwnksvcagf_map.png">
      <type>elevationChartUrlMap</type>
    </link>
    <link href="http://www.gpsies.com/charts/ut/mapThumb/utzgozvwnksvcagf_mapThumb.png">
      <type>elevationChartUrlMapThumb</type>
    </link>
    <link href="http://www.gpsies.com/charts/ut/tab/utzgozvwnksvcagf_tab.png">
      <type>elevationChartUrlTab</type>
    </link>
    <trkseg>
      <trkpt lat="45.88079130" lon="10.85750770">
        <ele>239.50549</ele>
        <time>2010-01-01T00:00:00Z</time>
      </trkpt>
      <trkpt lat="45.88066960" lon="10.85746300">
        <ele>244.79284</ele>
        <time>2010-01-01T00:00:05Z</time>
      </trkpt>
      <trkpt lat="45.88048650" lon="10.85738700">
        <ele>251.52209</ele>
        <time>2010-01-01T00:00:12Z</time>
      </trkpt>
      <trkpt lat="45.88029920" lon="10.85732430">
        <ele>258.73193</ele>
        <time>2010-01-01T00:00:20Z</time>
      </trkpt>
      <trkpt lat="45.88011370" lon="10.85726220">
        <ele>264.98059</ele>
        <time>2010-01-01T00:00:27Z</time>
      </trkpt>
      <trkpt lat="45.87995770" lon="10.85720860">
        <ele>269.30651</ele>
        <time>2010-01-01T00:00:34Z</time>
      </trkpt>
      <trkpt lat="45.87988050" lon="10.85714410">
        <ele>275.55505</ele>
        <time>2010-01-01T00:00:37Z</time>
      </trkpt>
      <trkpt lat="45.87979910" lon="10.85706280">
        <ele>283.24560</ele>
        <time>2010-01-01T00:00:41Z</time>
      </trkpt>
      <trkpt lat="45.87971520" lon="10.85697240">
        <ele>287.09082</ele>
        <time>2010-01-01T00:00:46Z</time>
      </trkpt>
      <trkpt lat="45.87959770" lon="10.85686430">
        <ele>290.93615</ele>
        <time>2010-01-01T00:00:51Z</time>
      </trkpt>
      <trkpt lat="45.87948160" lon="10.85680740">
        <ele>294.30078</ele>
        <time>2010-01-01T00:00:56Z</time>
      </trkpt>
      <trkpt lat="45.87943680" lon="10.85678720">
        <ele>293.33935</ele>
        <time>2010-01-01T00:00:58Z</time>
      </trkpt>
      <trkpt lat="45.87950350" lon="10.85681770">
        <ele>264.01928</ele>
        <time>2010-01-01T00:01:01Z</time>
      </trkpt>
      <trkpt lat="45.87955910" lon="10.85688910">
        <ele>245.27343</ele>
        <time>2010-01-01T00:01:04Z</time>
      </trkpt>
      <trkpt lat="45.87957690" lon="10.85701490">
        <ele>204.41748</ele>
        <time>2010-01-01T00:01:07Z</time>
      </trkpt>
      <trkpt lat="45.87955700" lon="10.85715970">
        <ele>177.50061</ele>
        <time>2010-01-01T00:01:11Z</time>
      </trkpt>
      <trkpt lat="45.87952010" lon="10.85727460">
        <ele>165.48413</ele>
        <time>2010-01-01T00:01:15Z</time>
      </trkpt>
      <trkpt lat="45.87943360" lon="10.85750210">
        <ele>148.18041</ele>
        <time>2010-01-01T00:01:22Z</time>
      </trkpt>
      <trkpt lat="45.87932470" lon="10.85780140">
        <ele>122.70544</ele>
        <time>2010-01-01T00:01:32Z</time>
      </trkpt>
      <trkpt lat="45.87918900" lon="10.85809860">
        <ele>92.423950</ele>
        <time>2010-01-01T00:01:42Z</time>
      </trkpt>
      <trkpt lat="45.87915480" lon="10.85822560">
        <ele>82.810791</ele>
        <time>2010-01-01T00:01:45Z</time>
      </trkpt>
      <trkpt lat="45.87923710" lon="10.85842670">
        <ele>71.274902</ele>
        <time>2010-01-01T00:01:52Z</time>
      </trkpt>
      <trkpt lat="45.87936520" lon="10.85859440">
        <ele>64.545654</ele>
        <time>2010-01-01T00:01:59Z</time>
      </trkpt>
      <trkpt lat="45.87948520" lon="10.85875770">
        <ele>56.855102</ele>
        <time>2010-01-01T00:02:05Z</time>
      </trkpt>
      <trkpt lat="45.87956750" lon="10.85884730">
        <ele>43.877319</ele>
        <time>2010-01-01T00:02:10Z</time>
      </trkpt>
      <trkpt lat="45.87972260" lon="10.85880700">
        <ele>-12.35986</ele>
        <time>2010-01-01T00:02:16Z</time>
      </trkpt>
      <trkpt lat="45.87985680" lon="10.85898460">
        <ele>-7.553100</ele>
        <time>2010-01-01T00:02:23Z</time>
      </trkpt>
      <trkpt lat="45.87998970" lon="10.85917420">
        <ele>-4.188598</ele>
        <time>2010-01-01T00:02:31Z</time>
      </trkpt>
      <trkpt lat="45.88011280" lon="10.85932570">
        <ele>-1.785278</ele>
        <time>2010-01-01T00:02:37Z</time>
      </trkpt>
      <trkpt lat="45.88015620" lon="10.85937710">
        <ele>-0.824096</ele>
        <time>2010-01-01T00:02:39Z</time>
      </trkpt>
      <trkpt lat="45.88028570" lon="10.85958030">
        <ele>-3.227294</ele>
        <time>2010-01-01T00:02:47Z</time>
      </trkpt>
      <trkpt lat="45.88040010" lon="10.85973600">
        <ele>-9.475830</ele>
        <time>2010-01-01T00:02:53Z</time>
      </trkpt>
      <trkpt lat="45.88051410" lon="10.85989190">
        <ele>-14.76306</ele>
        <time>2010-01-01T00:03:00Z</time>
      </trkpt>
      <trkpt lat="45.88064210" lon="10.86008430">
        <ele>-20.53100</ele>
        <time>2010-01-01T00:03:07Z</time>
      </trkpt>
      <trkpt lat="45.88072140" lon="10.86036200">
        <ele>0.6180420</ele>
        <time>2010-01-01T00:03:15Z</time>
      </trkpt>
      <trkpt lat="45.88079710" lon="10.86063690">
        <ele>21.286377</ele>
        <time>2010-01-01T00:03:24Z</time>
      </trkpt>
      <trkpt lat="45.88090760" lon="10.86092350">
        <ele>39.070678</ele>
        <time>2010-01-01T00:03:33Z</time>
      </trkpt>
      <trkpt lat="45.88102530" lon="10.86113540">
        <ele>47.722534</ele>
        <time>2010-01-01T00:03:40Z</time>
      </trkpt>
      <trkpt lat="45.88112800" lon="10.86128310">
        <ele>53.009765</ele>
        <time>2010-01-01T00:03:46Z</time>
      </trkpt>
      <trkpt lat="45.88126890" lon="10.86146170">
        <ele>57.816528</ele>
        <time>2010-01-01T00:03:54Z</time>
      </trkpt>
      <trkpt lat="45.88141720" lon="10.86163050">
        <ele>61.661743</ele>
        <time>2010-01-01T00:04:01Z</time>
      </trkpt>
      <trkpt lat="45.88153470" lon="10.86177120">
        <ele>65.987670</ele>
        <time>2010-01-01T00:04:07Z</time>
      </trkpt>
      <trkpt lat="45.88160870" lon="10.86186920">
        <ele>68.390869</ele>
        <time>2010-01-01T00:04:11Z</time>
      </trkpt>
      <trkpt lat="45.88172320" lon="10.86202480">
        <ele>70.313476</ele>
        <time>2010-01-01T00:04:18Z</time>
      </trkpt>
      <trkpt lat="45.88187430" lon="10.86219000">
        <ele>75.120239</ele>
        <time>2010-01-01T00:04:25Z</time>
      </trkpt>
      <trkpt lat="45.88200850" lon="10.86232720">
        <ele>76.081420</ele>
        <time>2010-01-01T00:04:32Z</time>
      </trkpt>
      <trkpt lat="45.88209620" lon="10.86240810">
        <ele>76.081420</ele>
        <time>2010-01-01T00:04:36Z</time>
      </trkpt>
      <trkpt lat="45.88220250" lon="10.86251790">
        <ele>77.042846</ele>
        <time>2010-01-01T00:04:41Z</time>
      </trkpt>
      <trkpt lat="45.88231990" lon="10.86257640">
        <ele>78.965454</ele>
        <time>2010-01-01T00:04:46Z</time>
      </trkpt>
      <trkpt lat="45.88244680" lon="10.86264600">
        <ele>78.965454</ele>
        <time>2010-01-01T00:04:52Z</time>
      </trkpt>
      <trkpt lat="45.88257620" lon="10.86270960">
        <ele>78.965454</ele>
        <time>2010-01-01T00:04:57Z</time>
      </trkpt>
      <trkpt lat="45.88269070" lon="10.86276240">
        <ele>78.965454</ele>
        <time>2010-01-01T00:05:02Z</time>
      </trkpt>
      <trkpt lat="45.88284210" lon="10.86279440">
        <ele>80.407470</ele>
        <time>2010-01-01T00:05:08Z</time>
      </trkpt>
      <trkpt lat="45.88295710" lon="10.86280180">
        <ele>80.888183</ele>
        <time>2010-01-01T00:05:13Z</time>
      </trkpt>
      <trkpt lat="45.88310260" lon="10.86277270">
        <ele>81.849365</ele>
        <time>2010-01-01T00:05:19Z</time>
      </trkpt>
      <trkpt lat="45.88319170" lon="10.86274050">
        <ele>82.330078</ele>
        <time>2010-01-01T00:05:22Z</time>
      </trkpt>
      <trkpt lat="45.88321170" lon="10.86273610">
        <ele>83.291381</ele>
        <time>2010-01-01T00:05:23Z</time>
      </trkpt>
      <trkpt lat="45.88336530" lon="10.86264800">
        <ele>83.291381</ele>
        <time>2010-01-01T00:05:30Z</time>
      </trkpt>
      <trkpt lat="45.88347870" lon="10.86258040">
        <ele>83.771972</ele>
        <time>2010-01-01T00:05:35Z</time>
      </trkpt>
      <trkpt lat="45.88363040" lon="10.86253180">
        <ele>83.771972</ele>
        <time>2010-01-01T00:05:41Z</time>
      </trkpt>
      <trkpt lat="45.88377240" lon="10.86251630">
        <ele>82.330078</ele>
        <time>2010-01-01T00:05:47Z</time>
      </trkpt>
      <trkpt lat="45.88389670" lon="10.86254540">
        <ele>81.368774</ele>
        <time>2010-01-01T00:05:52Z</time>
      </trkpt>
      <trkpt lat="45.88406770" lon="10.86261840">
        <ele>81.849365</ele>
        <time>2010-01-01T00:05:59Z</time>
      </trkpt>
      <trkpt lat="45.88423590" lon="10.86270430">
        <ele>82.330078</ele>
        <time>2010-01-01T00:06:06Z</time>
      </trkpt>
      <trkpt lat="45.88438300" lon="10.86277980">
        <ele>82.330078</ele>
        <time>2010-01-01T00:06:12Z</time>
      </trkpt>
      <trkpt lat="45.88450400" lon="10.86285510">
        <ele>82.330078</ele>
        <time>2010-01-01T00:06:17Z</time>
      </trkpt>
      <trkpt lat="45.88462150" lon="10.86291710">
        <ele>82.810791</ele>
        <time>2010-01-01T00:06:23Z</time>
      </trkpt>
      <trkpt lat="45.88475850" lon="10.86299300">
        <ele>83.291381</ele>
        <time>2010-01-01T00:06:28Z</time>
      </trkpt>
      <trkpt lat="45.88486970" lon="10.86306210">
        <ele>84.252685</ele>
        <time>2010-01-01T00:06:33Z</time>
      </trkpt>
      <trkpt lat="45.88498440" lon="10.86308090">
        <ele>84.252685</ele>
        <time>2010-01-01T00:06:38Z</time>
      </trkpt>
      <trkpt lat="45.88505880" lon="10.86303280">
        <ele>84.733398</ele>
        <time>2010-01-01T00:06:41Z</time>
      </trkpt>
      <trkpt lat="45.88510070" lon="10.86278050">
        <ele>84.252685</ele>
        <time>2010-01-01T00:06:48Z</time>
      </trkpt>
      <trkpt lat="45.88513420" lon="10.86260340">
        <ele>84.252685</ele>
        <time>2010-01-01T00:06:53Z</time>
      </trkpt>
      <trkpt lat="45.88515400" lon="10.86245520">
        <ele>84.252685</ele>
        <time>2010-01-01T00:06:58Z</time>
      </trkpt>
      <trkpt lat="45.88517940" lon="10.86226850">
        <ele>83.771972</ele>
        <time>2010-01-01T00:07:03Z</time>
      </trkpt>
      <trkpt lat="45.88520160" lon="10.86205100">
        <ele>84.252685</ele>
        <time>2010-01-01T00:07:09Z</time>
      </trkpt>
      <trkpt lat="45.88522430" lon="10.86187550">
        <ele>84.252685</ele>
        <time>2010-01-01T00:07:14Z</time>
      </trkpt>
      <trkpt lat="45.88524410" lon="10.86164550">
        <ele>82.810791</ele>
        <time>2010-01-01T00:07:21Z</time>
      </trkpt>
      <trkpt lat="45.88526900" lon="10.86143750">
        <ele>80.888183</ele>
        <time>2010-01-01T00:07:26Z</time>
      </trkpt>
      <trkpt lat="45.88527930" lon="10.86129260">
        <ele>79.446044</ele>
        <time>2010-01-01T00:07:30Z</time>
      </trkpt>
      <trkpt lat="45.88531560" lon="10.86103500">
        <ele>79.926635</ele>
        <time>2010-01-01T00:07:38Z</time>
      </trkpt>
      <trkpt lat="45.88534590" lon="10.86074480">
        <ele>80.407470</ele>
        <time>2010-01-01T00:07:46Z</time>
      </trkpt>
      <trkpt lat="45.88537060" lon="10.86053250">
        <ele>80.888183</ele>
        <time>2010-01-01T00:07:52Z</time>
      </trkpt>
      <trkpt lat="45.88540040" lon="10.86032140">
        <ele>79.926635</ele>
        <time>2010-01-01T00:07:58Z</time>
      </trkpt>
      <trkpt lat="45.88542080" lon="10.86010810">
        <ele>80.407470</ele>
        <time>2010-01-01T00:08:04Z</time>
      </trkpt>
      <trkpt lat="45.88546200" lon="10.85985690">
        <ele>79.926635</ele>
        <time>2010-01-01T00:08:11Z</time>
      </trkpt>
      <trkpt lat="45.88552020" lon="10.85970300">
        <ele>79.926635</ele>
        <time>2010-01-01T00:08:16Z</time>
      </trkpt>
      <trkpt lat="45.88560460" lon="10.85976100">
        <ele>79.926635</ele>
        <time>2010-01-01T00:08:20Z</time>
      </trkpt>
      <trkpt lat="45.88563580" lon="10.85981130">
        <ele>79.926635</ele>
        <time>2010-01-01T00:08:22Z</time>
      </trkpt>
      <trkpt lat="45.88574770" lon="10.85995540">
        <ele>79.926635</ele>
        <time>2010-01-01T00:08:28Z</time>
      </trkpt>
      <trkpt lat="45.88586030" lon="10.86009830">
        <ele>79.926635</ele>
        <time>2010-01-01T00:08:34Z</time>
      </trkpt>
      <trkpt lat="45.88598880" lon="10.86026560">
        <ele>79.446044</ele>
        <time>2010-01-01T00:08:41Z</time>
      </trkpt>
      <trkpt lat="45.88609860" lon="10.86040030">
        <ele>79.926635</ele>
        <time>2010-01-01T00:08:46Z</time>
      </trkpt>
      <trkpt lat="45.88619790" lon="10.86053030">
        <ele>80.888183</ele>
        <time>2010-01-01T00:08:52Z</time>
      </trkpt>
      <trkpt lat="45.88631910" lon="10.86071690">
        <ele>80.407470</ele>
        <time>2010-01-01T00:08:59Z</time>
      </trkpt>
      <trkpt lat="45.88640340" lon="10.86083960">
        <ele>79.926635</ele>
        <time>2010-01-01T00:09:04Z</time>
      </trkpt>
      <trkpt lat="45.88652100" lon="10.86101190">
        <ele>79.446044</ele>
        <time>2010-01-01T00:09:10Z</time>
      </trkpt>
      <trkpt lat="45.88662560" lon="10.86113960">
        <ele>78.965454</ele>
        <time>2010-01-01T00:09:16Z</time>
      </trkpt>
      <trkpt lat="45.88674320" lon="10.86122760">
        <ele>78.965454</ele>
        <time>2010-01-01T00:09:21Z</time>
      </trkpt>
      <trkpt lat="45.88685080" lon="10.86130110">
        <ele>78.965454</ele>
        <time>2010-01-01T00:09:26Z</time>
      </trkpt>
      <trkpt lat="45.88693970" lon="10.86138810">
        <ele>78.484741</ele>
        <time>2010-01-01T00:09:30Z</time>
      </trkpt>
      <trkpt lat="45.88704260" lon="10.86150250">
        <ele>79.446044</ele>
        <time>2010-01-01T00:09:36Z</time>
      </trkpt>
      <trkpt lat="45.88713020" lon="10.86162270">
        <ele>79.926635</ele>
        <time>2010-01-01T00:09:40Z</time>
      </trkpt>
      <trkpt lat="45.88725590" lon="10.86176070">
        <ele>78.004028</ele>
        <time>2010-01-01T00:09:47Z</time>
      </trkpt>
      <trkpt lat="45.88732180" lon="10.86184480">
        <ele>77.042846</ele>
        <time>2010-01-01T00:09:50Z</time>
      </trkpt>
      <trkpt lat="45.88741720" lon="10.86195590">
        <ele>75.600830</ele>
        <time>2010-01-01T00:09:55Z</time>
      </trkpt>
      <trkpt lat="45.88750740" lon="10.86207920">
        <ele>74.639526</ele>
        <time>2010-01-01T00:10:00Z</time>
      </trkpt>
      <trkpt lat="45.88761900" lon="10.86221360">
        <ele>74.158813</ele>
        <time>2010-01-01T00:10:06Z</time>
      </trkpt>
      <trkpt lat="45.88777200" lon="10.86239360">
        <ele>74.639526</ele>
        <time>2010-01-01T00:10:14Z</time>
      </trkpt>
      <trkpt lat="45.88784350" lon="10.86248070">
        <ele>73.678222</ele>
        <time>2010-01-01T00:10:18Z</time>
      </trkpt>
      <trkpt lat="45.88790150" lon="10.86240320">
        <ele>73.678222</ele>
        <time>2010-01-01T00:10:21Z</time>
      </trkpt>
      <trkpt lat="45.88800950" lon="10.86206340">
        <ele>76.081420</ele>
        <time>2010-01-01T00:10:31Z</time>
      </trkpt>
      <trkpt lat="45.88808690" lon="10.86183810">
        <ele>76.562133</ele>
        <time>2010-01-01T00:10:38Z</time>
      </trkpt>
      <trkpt lat="45.88818460" lon="10.86158810">
        <ele>77.523437</ele>
        <time>2010-01-01T00:10:46Z</time>
      </trkpt>
      <trkpt lat="45.88827340" lon="10.86137840">
        <ele>78.004028</ele>
        <time>2010-01-01T00:10:53Z</time>
      </trkpt>
      <trkpt lat="45.88836130" lon="10.86116520">
        <ele>78.965454</ele>
        <time>2010-01-01T00:11:00Z</time>
      </trkpt>
      <trkpt lat="45.88844390" lon="10.86094260">
        <ele>78.965454</ele>
        <time>2010-01-01T00:11:07Z</time>
      </trkpt>
      <trkpt lat="45.88852910" lon="10.86068780">
        <ele>78.965454</ele>
        <time>2010-01-01T00:11:15Z</time>
      </trkpt>
      <trkpt lat="45.88858730" lon="10.86048160">
        <ele>78.965454</ele>
        <time>2010-01-01T00:11:21Z</time>
      </trkpt>
      <trkpt lat="45.88865880" lon="10.86023400">
        <ele>79.926635</ele>
        <time>2010-01-01T00:11:29Z</time>
      </trkpt>
      <trkpt lat="45.88875770" lon="10.85996150">
        <ele>80.888183</ele>
        <time>2010-01-01T00:11:37Z</time>
      </trkpt>
      <trkpt lat="45.88881950" lon="10.85977080">
        <ele>80.407470</ele>
        <time>2010-01-01T00:11:43Z</time>
      </trkpt>
      <trkpt lat="45.88888480" lon="10.85962280">
        <ele>79.446044</ele>
        <time>2010-01-01T00:11:48Z</time>
      </trkpt>
      <trkpt lat="45.88890630" lon="10.85956210">
        <ele>79.446044</ele>
        <time>2010-01-01T00:11:50Z</time>
      </trkpt>
      <trkpt lat="45.88890360" lon="10.85940240">
        <ele>78.004028</ele>
        <time>2010-01-01T00:11:54Z</time>
      </trkpt>
      <trkpt lat="45.88896800" lon="10.85932940">
        <ele>78.004028</ele>
        <time>2010-01-01T00:11:57Z</time>
      </trkpt>
      <trkpt lat="45.88909190" lon="10.85931560">
        <ele>77.523437</ele>
        <time>2010-01-01T00:12:02Z</time>
      </trkpt>
      <trkpt lat="45.88913580" lon="10.85927010">
        <ele>77.523437</ele>
        <time>2010-01-01T00:12:05Z</time>
      </trkpt>
      <trkpt lat="45.88916800" lon="10.85922140">
        <ele>78.965454</ele>
        <time>2010-01-01T00:12:06Z</time>
      </trkpt>
      <trkpt lat="45.88925550" lon="10.85908550">
        <ele>78.484741</ele>
        <time>2010-01-01T00:12:12Z</time>
      </trkpt>
      <trkpt lat="45.88927120" lon="10.85906190">
        <ele>78.484741</ele>
        <time>2010-01-01T00:12:13Z</time>
      </trkpt>
      <trkpt lat="45.88937780" lon="10.85894670">
        <ele>79.926635</ele>
        <time>2010-01-01T00:12:18Z</time>
      </trkpt>
      <trkpt lat="45.88947160" lon="10.85879920">
        <ele>80.407470</ele>
        <time>2010-01-01T00:12:23Z</time>
      </trkpt>
      <trkpt lat="45.88955660" lon="10.85864880">
        <ele>79.446044</ele>
        <time>2010-01-01T00:12:29Z</time>
      </trkpt>
      <trkpt lat="45.88966010" lon="10.85850070">
        <ele>79.446044</ele>
        <time>2010-01-01T00:12:35Z</time>
      </trkpt>
      <trkpt lat="45.88976420" lon="10.85833450">
        <ele>79.446044</ele>
        <time>2010-01-01T00:12:41Z</time>
      </trkpt>
      <trkpt lat="45.88987730" lon="10.85818160">
        <ele>78.965454</ele>
        <time>2010-01-01T00:12:47Z</time>
      </trkpt>
      <trkpt lat="45.88993860" lon="10.85804390">
        <ele>77.523437</ele>
        <time>2010-01-01T00:12:52Z</time>
      </trkpt>
      <trkpt lat="45.89003030" lon="10.85791440">
        <ele>76.081420</ele>
        <time>2010-01-01T00:12:57Z</time>
      </trkpt>
      <trkpt lat="45.89010440" lon="10.85780750">
        <ele>74.158813</ele>
        <time>2010-01-01T00:13:01Z</time>
      </trkpt>
      <trkpt lat="45.89022630" lon="10.85767040">
        <ele>73.197631</ele>
        <time>2010-01-01T00:13:07Z</time>
      </trkpt>
      <trkpt lat="45.89033570" lon="10.85756770">
        <ele>73.197631</ele>
        <time>2010-01-01T00:13:12Z</time>
      </trkpt>
      <trkpt lat="45.89043810" lon="10.85756530">
        <ele>73.678222</ele>
        <time>2010-01-01T00:13:17Z</time>
      </trkpt>
      <trkpt lat="45.89062220" lon="10.85746040">
        <ele>75.120239</ele>
        <time>2010-01-01T00:13:24Z</time>
      </trkpt>
      <trkpt lat="45.89079850" lon="10.85740050">
        <ele>78.004028</ele>
        <time>2010-01-01T00:13:32Z</time>
      </trkpt>
      <trkpt lat="45.89096320" lon="10.85735890">
        <ele>79.926635</ele>
        <time>2010-01-01T00:13:38Z</time>
      </trkpt>
      <trkpt lat="45.89109710" lon="10.85736760">
        <ele>80.407470</ele>
        <time>2010-01-01T00:13:44Z</time>
      </trkpt>
      <trkpt lat="45.89119140" lon="10.85747520">
        <ele>78.965454</ele>
        <time>2010-01-01T00:13:49Z</time>
      </trkpt>
      <trkpt lat="45.89132000" lon="10.85763830">
        <ele>78.004028</ele>
        <time>2010-01-01T00:13:55Z</time>
      </trkpt>
      <trkpt lat="45.89146280" lon="10.85778020">
        <ele>74.158813</ele>
        <time>2010-01-01T00:14:02Z</time>
      </trkpt>
      <trkpt lat="45.89163110" lon="10.85794170">
        <ele>71.274902</ele>
        <time>2010-01-01T00:14:11Z</time>
      </trkpt>
      <trkpt lat="45.89175990" lon="10.85807550">
        <ele>70.313476</ele>
        <time>2010-01-01T00:14:17Z</time>
      </trkpt>
      <trkpt lat="45.89184980" lon="10.85815510">
        <ele>69.352294</ele>
        <time>2010-01-01T00:14:21Z</time>
      </trkpt>
      <trkpt lat="45.89201950" lon="10.85833240">
        <ele>67.910278</ele>
        <time>2010-01-01T00:14:30Z</time>
      </trkpt>
      <trkpt lat="45.89215120" lon="10.85845980">
        <ele>67.429687</ele>
        <time>2010-01-01T00:14:36Z</time>
      </trkpt>
      <trkpt lat="45.89226320" lon="10.85859850">
        <ele>66.948974</ele>
        <time>2010-01-01T00:14:42Z</time>
      </trkpt>
      <trkpt lat="45.89239770" lon="10.85878180">
        <ele>66.948974</ele>
        <time>2010-01-01T00:14:49Z</time>
      </trkpt>
      <trkpt lat="45.89249410" lon="10.85893690">
        <ele>65.987670</ele>
        <time>2010-01-01T00:14:55Z</time>
      </trkpt>
      <trkpt lat="45.89259810" lon="10.85909230">
        <ele>65.987670</ele>
        <time>2010-01-01T00:15:01Z</time>
      </trkpt>
      <trkpt lat="45.89270510" lon="10.85925130">
        <ele>65.507080</ele>
        <time>2010-01-01T00:15:07Z</time>
      </trkpt>
      <trkpt lat="45.89280870" lon="10.85940520">
        <ele>64.065063</ele>
        <time>2010-01-01T00:15:13Z</time>
      </trkpt>
      <trkpt lat="45.89294620" lon="10.85960060">
        <ele>65.507080</ele>
        <time>2010-01-01T00:15:21Z</time>
      </trkpt>
      <trkpt lat="45.89305570" lon="10.85976050">
        <ele>68.390869</ele>
        <time>2010-01-01T00:15:27Z</time>
      </trkpt>
      <trkpt lat="45.89318400" lon="10.85994270">
        <ele>71.274902</ele>
        <time>2010-01-01T00:15:34Z</time>
      </trkpt>
      <trkpt lat="45.89330740" lon="10.86013830">
        <ele>72.716918</ele>
        <time>2010-01-01T00:15:42Z</time>
      </trkpt>
      <trkpt lat="45.89341320" lon="10.86030330">
        <ele>73.678222</ele>
        <time>2010-01-01T00:15:48Z</time>
      </trkpt>
      <trkpt lat="45.89351460" lon="10.86049490">
        <ele>73.678222</ele>
        <time>2010-01-01T00:15:55Z</time>
      </trkpt>
      <trkpt lat="45.89363340" lon="10.86068530">
        <ele>74.158813</ele>
        <time>2010-01-01T00:16:02Z</time>
      </trkpt>
      <trkpt lat="45.89375140" lon="10.86087480">
        <ele>75.120239</ele>
        <time>2010-01-01T00:16:09Z</time>
      </trkpt>
      <trkpt lat="45.89386540" lon="10.86107110">
        <ele>75.600830</ele>
        <time>2010-01-01T00:16:16Z</time>
      </trkpt>
      <trkpt lat="45.89399790" lon="10.86125010">
        <ele>76.562133</ele>
        <time>2010-01-01T00:16:23Z</time>
      </trkpt>
      <trkpt lat="45.89412910" lon="10.86145180">
        <ele>77.042846</ele>
        <time>2010-01-01T00:16:31Z</time>
      </trkpt>
      <trkpt lat="45.89421920" lon="10.86163010">
        <ele>77.042846</ele>
        <time>2010-01-01T00:16:37Z</time>
      </trkpt>
      <trkpt lat="45.89431440" lon="10.86179020">
        <ele>77.523437</ele>
        <time>2010-01-01T00:16:43Z</time>
      </trkpt>
      <trkpt lat="45.89446930" lon="10.86196550">
        <ele>78.484741</ele>
        <time>2010-01-01T00:16:51Z</time>
      </trkpt>
      <trkpt lat="45.89457750" lon="10.86205690">
        <ele>78.965454</ele>
        <time>2010-01-01T00:16:56Z</time>
      </trkpt>
      <trkpt lat="45.89468120" lon="10.86216680">
        <ele>78.484741</ele>
        <time>2010-01-01T00:17:01Z</time>
      </trkpt>
      <trkpt lat="45.89483230" lon="10.86228680">
        <ele>78.965454</ele>
        <time>2010-01-01T00:17:08Z</time>
      </trkpt>
      <trkpt lat="45.89499410" lon="10.86241900">
        <ele>79.446044</ele>
        <time>2010-01-01T00:17:15Z</time>
      </trkpt>
      <trkpt lat="45.89515310" lon="10.86256860">
        <ele>79.446044</ele>
        <time>2010-01-01T00:17:23Z</time>
      </trkpt>
      <trkpt lat="45.89526910" lon="10.86270480">
        <ele>79.446044</ele>
        <time>2010-01-01T00:17:29Z</time>
      </trkpt>
      <trkpt lat="45.89539400" lon="10.86286140">
        <ele>79.446044</ele>
        <time>2010-01-01T00:17:36Z</time>
      </trkpt>
      <trkpt lat="45.89537900" lon="10.86286440">
        <ele>79.926635</ele>
        <time>2010-01-01T00:17:36Z</time>
      </trkpt>
      <trkpt lat="45.89526280" lon="10.86271160">
        <ele>80.888183</ele>
        <time>2010-01-01T00:17:43Z</time>
      </trkpt>
      <trkpt lat="45.89514590" lon="10.86258000">
        <ele>83.771972</ele>
        <time>2010-01-01T00:17:49Z</time>
      </trkpt>
      <trkpt lat="45.89499670" lon="10.86244360">
        <ele>84.733398</ele>
        <time>2010-01-01T00:17:56Z</time>
      </trkpt>
      <trkpt lat="45.89484470" lon="10.86232500">
        <ele>84.733398</ele>
        <time>2010-01-01T00:18:03Z</time>
      </trkpt>
      <trkpt lat="45.89475970" lon="10.86225320">
        <ele>84.733398</ele>
        <time>2010-01-01T00:18:06Z</time>
      </trkpt>
      <trkpt lat="45.89469920" lon="10.86221960">
        <ele>84.733398</ele>
        <time>2010-01-01T00:18:09Z</time>
      </trkpt>
      <trkpt lat="45.89465170" lon="10.86230450">
        <ele>84.733398</ele>
        <time>2010-01-01T00:18:12Z</time>
      </trkpt>
      <trkpt lat="45.89463350" lon="10.86236620">
        <ele>83.771972</ele>
        <time>2010-01-01T00:18:14Z</time>
      </trkpt>
      <trkpt lat="45.89455160" lon="10.86260010">
        <ele>81.368774</ele>
        <time>2010-01-01T00:18:21Z</time>
      </trkpt>
      <trkpt lat="45.89443880" lon="10.86283520">
        <ele>81.849365</ele>
        <time>2010-01-01T00:18:29Z</time>
      </trkpt>
      <trkpt lat="45.89432210" lon="10.86301970">
        <ele>80.888183</ele>
        <time>2010-01-01T00:18:36Z</time>
      </trkpt>
      <trkpt lat="45.89424030" lon="10.86320110">
        <ele>79.926635</ele>
        <time>2010-01-01T00:18:42Z</time>
      </trkpt>
      <trkpt lat="45.89416320" lon="10.86342500">
        <ele>79.926635</ele>
        <time>2010-01-01T00:18:49Z</time>
      </trkpt>
      <trkpt lat="45.89409170" lon="10.86361700">
        <ele>79.446044</ele>
        <time>2010-01-01T00:18:55Z</time>
      </trkpt>
      <trkpt lat="45.89400110" lon="10.86380770">
        <ele>78.484741</ele>
        <time>2010-01-01T00:19:02Z</time>
      </trkpt>
      <trkpt lat="45.89390580" lon="10.86402790">
        <ele>78.965454</ele>
        <time>2010-01-01T00:19:09Z</time>
      </trkpt>
      <trkpt lat="45.89378820" lon="10.86427750">
        <ele>79.446044</ele>
        <time>2010-01-01T00:19:17Z</time>
      </trkpt>
      <trkpt lat="45.89369020" lon="10.86448260">
        <ele>78.965454</ele>
        <time>2010-01-01T00:19:24Z</time>
      </trkpt>
      <trkpt lat="45.89359090" lon="10.86469110">
        <ele>78.484741</ele>
        <time>2010-01-01T00:19:31Z</time>
      </trkpt>
      <trkpt lat="45.89350100" lon="10.86487330">
        <ele>78.484741</ele>
        <time>2010-01-01T00:19:37Z</time>
      </trkpt>
      <trkpt lat="45.89339200" lon="10.86507750">
        <ele>77.523437</ele>
        <time>2010-01-01T00:19:45Z</time>
      </trkpt>
      <trkpt lat="45.89328000" lon="10.86528320">
        <ele>76.562133</ele>
        <time>2010-01-01T00:19:52Z</time>
      </trkpt>
      <trkpt lat="45.89320370" lon="10.86543170">
        <ele>77.523437</ele>
        <time>2010-01-01T00:19:57Z</time>
      </trkpt>
      <trkpt lat="45.89308690" lon="10.86562550">
        <ele>78.004028</ele>
        <time>2010-01-01T00:20:04Z</time>
      </trkpt>
      <trkpt lat="45.89295040" lon="10.86583270">
        <ele>78.484741</ele>
        <time>2010-01-01T00:20:12Z</time>
      </trkpt>
      <trkpt lat="45.89283610" lon="10.86601540">
        <ele>78.484741</ele>
        <time>2010-01-01T00:20:19Z</time>
      </trkpt>
      <trkpt lat="45.89282720" lon="10.86609040">
        <ele>79.446044</ele>
        <time>2010-01-01T00:20:21Z</time>
      </trkpt>
      <trkpt lat="45.89288730" lon="10.86635580">
        <ele>80.888183</ele>
        <time>2010-01-01T00:20:29Z</time>
      </trkpt>
      <trkpt lat="45.89290640" lon="10.86642420">
        <ele>81.849365</ele>
        <time>2010-01-01T00:20:31Z</time>
      </trkpt>
      <trkpt lat="45.89299880" lon="10.86658440">
        <ele>83.771972</ele>
        <time>2010-01-01T00:20:37Z</time>
      </trkpt>
      <trkpt lat="45.89303630" lon="10.86660550">
        <ele>83.771972</ele>
        <time>2010-01-01T00:20:38Z</time>
      </trkpt>
      <trkpt lat="45.89312140" lon="10.86669030">
        <ele>82.810791</ele>
        <time>2010-01-01T00:20:42Z</time>
      </trkpt>
      <trkpt lat="45.89320290" lon="10.86685340">
        <ele>82.330078</ele>
        <time>2010-01-01T00:20:48Z</time>
      </trkpt>
      <trkpt lat="45.89327790" lon="10.86698160">
        <ele>80.888183</ele>
        <time>2010-01-01T00:20:53Z</time>
      </trkpt>
      <trkpt lat="45.89333090" lon="10.86706630">
        <ele>80.407470</ele>
        <time>2010-01-01T00:20:56Z</time>
      </trkpt>
      <trkpt lat="45.89342790" lon="10.86727750">
        <ele>78.965454</ele>
        <time>2010-01-01T00:21:03Z</time>
      </trkpt>
      <trkpt lat="45.89348980" lon="10.86748410">
        <ele>78.965454</ele>
        <time>2010-01-01T00:21:09Z</time>
      </trkpt>
      <trkpt lat="45.89352870" lon="10.86769800">
        <ele>77.523437</ele>
        <time>2010-01-01T00:21:15Z</time>
      </trkpt>
      <trkpt lat="45.89358470" lon="10.86790950">
        <ele>77.042846</ele>
        <time>2010-01-01T00:21:22Z</time>
      </trkpt>
      <trkpt lat="45.89366740" lon="10.86814660">
        <ele>78.004028</ele>
        <time>2010-01-01T00:21:29Z</time>
      </trkpt>
      <trkpt lat="45.89374890" lon="10.86833820">
        <ele>79.926635</ele>
        <time>2010-01-01T00:21:35Z</time>
      </trkpt>
      <trkpt lat="45.89383280" lon="10.86847450">
        <ele>81.849365</ele>
        <time>2010-01-01T00:21:40Z</time>
      </trkpt>
      <trkpt lat="45.89395760" lon="10.86859310">
        <ele>84.252685</ele>
        <time>2010-01-01T00:21:46Z</time>
      </trkpt>
      <trkpt lat="45.89404830" lon="10.86871260">
        <ele>84.733398</ele>
        <time>2010-01-01T00:21:51Z</time>
      </trkpt>
      <trkpt lat="45.89414560" lon="10.86885810">
        <ele>85.213989</ele>
        <time>2010-01-01T00:21:57Z</time>
      </trkpt>
      <trkpt lat="45.89426880" lon="10.86900500">
        <ele>85.694580</ele>
        <time>2010-01-01T00:22:03Z</time>
      </trkpt>
      <trkpt lat="45.89441200" lon="10.86917000">
        <ele>85.213989</ele>
        <time>2010-01-01T00:22:11Z</time>
      </trkpt>
      <trkpt lat="45.89455000" lon="10.86936800">
        <ele>84.252685</ele>
        <time>2010-01-01T00:22:19Z</time>
      </trkpt>
      <trkpt lat="45.89465870" lon="10.86952670">
        <ele>83.771972</ele>
        <time>2010-01-01T00:22:25Z</time>
      </trkpt>
      <trkpt lat="45.89478310" lon="10.86972680">
        <ele>84.252685</ele>
        <time>2010-01-01T00:22:32Z</time>
      </trkpt>
      <trkpt lat="45.89488740" lon="10.86989690">
        <ele>82.810791</ele>
        <time>2010-01-01T00:22:39Z</time>
      </trkpt>
      <trkpt lat="45.89497070" lon="10.87006530">
        <ele>80.888183</ele>
        <time>2010-01-01T00:22:44Z</time>
      </trkpt>
      <trkpt lat="45.89506140" lon="10.87024510">
        <ele>80.407470</ele>
        <time>2010-01-01T00:22:50Z</time>
      </trkpt>
      <trkpt lat="45.89515580" lon="10.87044350">
        <ele>79.446044</ele>
        <time>2010-01-01T00:22:57Z</time>
      </trkpt>
      <trkpt lat="45.89527800" lon="10.87055520">
        <ele>78.965454</ele>
        <time>2010-01-01T00:23:03Z</time>
      </trkpt>
      <trkpt lat="45.89547580" lon="10.87060820">
        <ele>79.926635</ele>
        <time>2010-01-01T00:23:11Z</time>
      </trkpt>
      <trkpt lat="45.89558580" lon="10.87051610">
        <ele>79.926635</ele>
        <time>2010-01-01T00:23:16Z</time>
      </trkpt>
      <trkpt lat="45.89573290" lon="10.87030410">
        <ele>79.926635</ele>
        <time>2010-01-01T00:23:24Z</time>
      </trkpt>
      <trkpt lat="45.89584670" lon="10.87008820">
        <ele>78.965454</ele>
        <time>2010-01-01T00:23:32Z</time>
      </trkpt>
      <trkpt lat="45.89596130" lon="10.86986830">
        <ele>78.004028</ele>
        <time>2010-01-01T00:23:40Z</time>
      </trkpt>
      <trkpt lat="45.89599900" lon="10.86980370">
        <ele>78.484741</ele>
        <time>2010-01-01T00:23:42Z</time>
      </trkpt>
      <trkpt lat="45.89610830" lon="10.86980580">
        <ele>78.965454</ele>
        <time>2010-01-01T00:23:46Z</time>
      </trkpt>
      <trkpt lat="45.89626620" lon="10.86989880">
        <ele>79.446044</ele>
        <time>2010-01-01T00:23:53Z</time>
      </trkpt>
      <trkpt lat="45.89642790" lon="10.86998620">
        <ele>80.888183</ele>
        <time>2010-01-01T00:24:00Z</time>
      </trkpt>
      <trkpt lat="45.89645530" lon="10.87000160">
        <ele>80.888183</ele>
        <time>2010-01-01T00:24:01Z</time>
      </trkpt>
      <trkpt lat="45.89657660" lon="10.87007730">
        <ele>80.407470</ele>
        <time>2010-01-01T00:24:07Z</time>
      </trkpt>
      <trkpt lat="45.89671290" lon="10.87025110">
        <ele>80.407470</ele>
        <time>2010-01-01T00:24:14Z</time>
      </trkpt>
      <trkpt lat="45.89677020" lon="10.87042020">
        <ele>80.407470</ele>
        <time>2010-01-01T00:24:19Z</time>
      </trkpt>
      <trkpt lat="45.89680980" lon="10.87068470">
        <ele>80.888183</ele>
        <time>2010-01-01T00:24:27Z</time>
      </trkpt>
      <trkpt lat="45.89685090" lon="10.87094260">
        <ele>80.888183</ele>
        <time>2010-01-01T00:24:34Z</time>
      </trkpt>
      <trkpt lat="45.89689410" lon="10.87124590">
        <ele>80.407470</ele>
        <time>2010-01-01T00:24:43Z</time>
      </trkpt>
      <trkpt lat="45.89693610" lon="10.87150750">
        <ele>80.407470</ele>
        <time>2010-01-01T00:24:50Z</time>
      </trkpt>
      <trkpt lat="45.89694440" lon="10.87173750">
        <ele>80.407470</ele>
        <time>2010-01-01T00:24:57Z</time>
      </trkpt>
      <trkpt lat="45.89691110" lon="10.87200800">
        <ele>81.368774</ele>
        <time>2010-01-01T00:25:04Z</time>
      </trkpt>
      <trkpt lat="45.89695320" lon="10.87222700">
        <ele>80.888183</ele>
        <time>2010-01-01T00:25:11Z</time>
      </trkpt>
      <trkpt lat="45.89698530" lon="10.87244330">
        <ele>78.965454</ele>
        <time>2010-01-01T00:25:17Z</time>
      </trkpt>
      <trkpt lat="45.89703460" lon="10.87265740">
        <ele>78.484741</ele>
        <time>2010-01-01T00:25:23Z</time>
      </trkpt>
      <trkpt lat="45.89707550" lon="10.87288480">
        <ele>78.484741</ele>
        <time>2010-01-01T00:25:30Z</time>
      </trkpt>
      <trkpt lat="45.89712720" lon="10.87314180">
        <ele>79.446044</ele>
        <time>2010-01-01T00:25:37Z</time>
      </trkpt>
      <trkpt lat="45.89716960" lon="10.87336920">
        <ele>78.484741</ele>
        <time>2010-01-01T00:25:44Z</time>
      </trkpt>
      <trkpt lat="45.89721820" lon="10.87363280">
        <ele>78.965454</ele>
        <time>2010-01-01T00:25:51Z</time>
      </trkpt>
      <trkpt lat="45.89725470" lon="10.87387750">
        <ele>78.965454</ele>
        <time>2010-01-01T00:25:58Z</time>
      </trkpt>
      <trkpt lat="45.89728790" lon="10.87411940">
        <ele>79.926635</ele>
        <time>2010-01-01T00:26:05Z</time>
      </trkpt>
      <trkpt lat="45.89733900" lon="10.87438970">
        <ele>80.407470</ele>
        <time>2010-01-01T00:26:13Z</time>
      </trkpt>
      <trkpt lat="45.89736530" lon="10.87462890">
        <ele>80.407470</ele>
        <time>2010-01-01T00:26:20Z</time>
      </trkpt>
      <trkpt lat="45.89740270" lon="10.87486580">
        <ele>81.368774</ele>
        <time>2010-01-01T00:26:26Z</time>
      </trkpt>
      <trkpt lat="45.89745310" lon="10.87514440">
        <ele>81.368774</ele>
        <time>2010-01-01T00:26:34Z</time>
      </trkpt>
      <trkpt lat="45.89749600" lon="10.87543220">
        <ele>80.888183</ele>
        <time>2010-01-01T00:26:43Z</time>
      </trkpt>
      <trkpt lat="45.89751150" lon="10.87572300">
        <ele>80.407470</ele>
        <time>2010-01-01T00:26:51Z</time>
      </trkpt>
      <trkpt lat="45.89751850" lon="10.87601710">
        <ele>80.407470</ele>
        <time>2010-01-01T00:26:59Z</time>
      </trkpt>
      <trkpt lat="45.89750240" lon="10.87628020">
        <ele>80.888183</ele>
        <time>2010-01-01T00:27:06Z</time>
      </trkpt>
      <trkpt lat="45.89754780" lon="10.87652540">
        <ele>79.926635</ele>
        <time>2010-01-01T00:27:13Z</time>
      </trkpt>
      <trkpt lat="45.89763390" lon="10.87674620">
        <ele>79.446044</ele>
        <time>2010-01-01T00:27:20Z</time>
      </trkpt>
      <trkpt lat="45.89774170" lon="10.87693250">
        <ele>78.965454</ele>
        <time>2010-01-01T00:27:27Z</time>
      </trkpt>
      <trkpt lat="45.89789190" lon="10.87698030">
        <ele>79.446044</ele>
        <time>2010-01-01T00:27:33Z</time>
      </trkpt>
      <trkpt lat="45.89804570" lon="10.87696580">
        <ele>79.446044</ele>
        <time>2010-01-01T00:27:39Z</time>
      </trkpt>
      <trkpt lat="45.89807460" lon="10.87697300">
        <ele>79.446044</ele>
        <time>2010-01-01T00:27:41Z</time>
      </trkpt>
      <trkpt lat="45.89813530" lon="10.87713890">
        <ele>79.446044</ele>
        <time>2010-01-01T00:27:46Z</time>
      </trkpt>
      <trkpt lat="45.89812860" lon="10.87720030">
        <ele>79.926635</ele>
        <time>2010-01-01T00:27:48Z</time>
      </trkpt>
      <trkpt lat="45.89807660" lon="10.87751030">
        <ele>80.888183</ele>
        <time>2010-01-01T00:27:56Z</time>
      </trkpt>
      <trkpt lat="45.89805180" lon="10.87770020">
        <ele>79.926635</ele>
        <time>2010-01-01T00:28:02Z</time>
      </trkpt>
      <trkpt lat="45.89800210" lon="10.87803880">
        <ele>80.888183</ele>
        <time>2010-01-01T00:28:11Z</time>
      </trkpt>
      <trkpt lat="45.89794500" lon="10.87826890">
        <ele>80.888183</ele>
        <time>2010-01-01T00:28:18Z</time>
      </trkpt>
      <trkpt lat="45.89786210" lon="10.87847810">
        <ele>80.888183</ele>
        <time>2010-01-01T00:28:25Z</time>
      </trkpt>
      <trkpt lat="45.89777770" lon="10.87872000">
        <ele>79.926635</ele>
        <time>2010-01-01T00:28:32Z</time>
      </trkpt>
      <trkpt lat="45.89769600" lon="10.87893260">
        <ele>80.407470</ele>
        <time>2010-01-01T00:28:39Z</time>
      </trkpt>
      <trkpt lat="45.89760500" lon="10.87919280">
        <ele>79.926635</ele>
        <time>2010-01-01T00:28:47Z</time>
      </trkpt>
      <trkpt lat="45.89750280" lon="10.87944290">
        <ele>80.888183</ele>
        <time>2010-01-01T00:28:55Z</time>
      </trkpt>
      <trkpt lat="45.89734900" lon="10.87973770">
        <ele>80.888183</ele>
        <time>2010-01-01T00:29:06Z</time>
      </trkpt>
      <trkpt lat="45.89721840" lon="10.87996140">
        <ele>78.965454</ele>
        <time>2010-01-01T00:29:14Z</time>
      </trkpt>
      <trkpt lat="45.89711270" lon="10.88013130">
        <ele>78.965454</ele>
        <time>2010-01-01T00:29:20Z</time>
      </trkpt>
      <trkpt lat="45.89692860" lon="10.88039810">
        <ele>79.926635</ele>
        <time>2010-01-01T00:29:31Z</time>
      </trkpt>
      <trkpt lat="45.89681530" lon="10.88055810">
        <ele>80.407470</ele>
        <time>2010-01-01T00:29:37Z</time>
      </trkpt>
      <trkpt lat="45.89669310" lon="10.88072290">
        <ele>80.407470</ele>
        <time>2010-01-01T00:29:44Z</time>
      </trkpt>
      <trkpt lat="45.89656580" lon="10.88087200">
        <ele>80.407470</ele>
        <time>2010-01-01T00:29:50Z</time>
      </trkpt>
      <trkpt lat="45.89642360" lon="10.88100470">
        <ele>80.888183</ele>
        <time>2010-01-01T00:29:57Z</time>
      </trkpt>
      <trkpt lat="45.89635390" lon="10.88101140">
        <ele>80.888183</ele>
        <time>2010-01-01T00:30:00Z</time>
      </trkpt>
      <trkpt lat="45.89624860" lon="10.88099990">
        <ele>80.888183</ele>
        <time>2010-01-01T00:30:04Z</time>
      </trkpt>
      <trkpt lat="45.89611910" lon="10.88107040">
        <ele>80.407470</ele>
        <time>2010-01-01T00:30:10Z</time>
      </trkpt>
      <trkpt lat="45.89599170" lon="10.88120490">
        <ele>81.368774</ele>
        <time>2010-01-01T00:30:16Z</time>
      </trkpt>
      <trkpt lat="45.89585010" lon="10.88127820">
        <ele>82.330078</ele>
        <time>2010-01-01T00:30:22Z</time>
      </trkpt>
      <trkpt lat="45.89566040" lon="10.88134750">
        <ele>82.810791</ele>
        <time>2010-01-01T00:30:30Z</time>
      </trkpt>
      <trkpt lat="45.89548180" lon="10.88140610">
        <ele>83.291381</ele>
        <time>2010-01-01T00:30:37Z</time>
      </trkpt>
      <trkpt lat="45.89529880" lon="10.88147860">
        <ele>83.291381</ele>
        <time>2010-01-01T00:30:45Z</time>
      </trkpt>
      <trkpt lat="45.89509870" lon="10.88157910">
        <ele>82.330078</ele>
        <time>2010-01-01T00:30:53Z</time>
      </trkpt>
      <trkpt lat="45.89494680" lon="10.88165890">
        <ele>82.330078</ele>
        <time>2010-01-01T00:31:00Z</time>
      </trkpt>
      <trkpt lat="45.89478410" lon="10.88177080">
        <ele>81.849365</ele>
        <time>2010-01-01T00:31:07Z</time>
      </trkpt>
      <trkpt lat="45.89466680" lon="10.88183530">
        <ele>81.368774</ele>
        <time>2010-01-01T00:31:12Z</time>
      </trkpt>
      <trkpt lat="45.89453570" lon="10.88192000">
        <ele>80.888183</ele>
        <time>2010-01-01T00:31:18Z</time>
      </trkpt>
      <trkpt lat="45.89441020" lon="10.88198940">
        <ele>79.926635</ele>
        <time>2010-01-01T00:31:23Z</time>
      </trkpt>
      <trkpt lat="45.89425900" lon="10.88209140">
        <ele>79.446044</ele>
        <time>2010-01-01T00:31:30Z</time>
      </trkpt>
      <trkpt lat="45.89411290" lon="10.88220370">
        <ele>79.926635</ele>
        <time>2010-01-01T00:31:36Z</time>
      </trkpt>
      <trkpt lat="45.89395910" lon="10.88231220">
        <ele>80.407470</ele>
        <time>2010-01-01T00:31:43Z</time>
      </trkpt>
      <trkpt lat="45.89383280" lon="10.88241080">
        <ele>80.888183</ele>
        <time>2010-01-01T00:31:49Z</time>
      </trkpt>
      <trkpt lat="45.89371230" lon="10.88249550">
        <ele>79.446044</ele>
        <time>2010-01-01T00:31:54Z</time>
      </trkpt>
      <trkpt lat="45.89358820" lon="10.88256750">
        <ele>77.523437</ele>
        <time>2010-01-01T00:32:00Z</time>
      </trkpt>
      <trkpt lat="45.89342490" lon="10.88265240">
        <ele>78.004028</ele>
        <time>2010-01-01T00:32:07Z</time>
      </trkpt>
      <trkpt lat="45.89330170" lon="10.88269990">
        <ele>77.042846</ele>
        <time>2010-01-01T00:32:12Z</time>
      </trkpt>
      <trkpt lat="45.89320070" lon="10.88274040">
        <ele>75.600830</ele>
        <time>2010-01-01T00:32:16Z</time>
      </trkpt>
      <trkpt lat="45.89307500" lon="10.88277290">
        <ele>74.639526</ele>
        <time>2010-01-01T00:32:21Z</time>
      </trkpt>
      <trkpt lat="45.89291960" lon="10.88282500">
        <ele>76.562133</ele>
        <time>2010-01-01T00:32:28Z</time>
      </trkpt>
      <trkpt lat="45.89279090" lon="10.88286720">
        <ele>76.562133</ele>
        <time>2010-01-01T00:32:33Z</time>
      </trkpt>
      <trkpt lat="45.89261490" lon="10.88289690">
        <ele>77.042846</ele>
        <time>2010-01-01T00:32:40Z</time>
      </trkpt>
      <trkpt lat="45.89244960" lon="10.88292740">
        <ele>78.965454</ele>
        <time>2010-01-01T00:32:47Z</time>
      </trkpt>
      <trkpt lat="45.89231810" lon="10.88294820">
        <ele>81.368774</ele>
        <time>2010-01-01T00:32:52Z</time>
      </trkpt>
      <trkpt lat="45.89217970" lon="10.88295190">
        <ele>80.888183</ele>
        <time>2010-01-01T00:32:57Z</time>
      </trkpt>
      <trkpt lat="45.89201100" lon="10.88297320">
        <ele>79.926635</ele>
        <time>2010-01-01T00:33:04Z</time>
      </trkpt>
      <trkpt lat="45.89187490" lon="10.88300110">
        <ele>80.888183</ele>
        <time>2010-01-01T00:33:10Z</time>
      </trkpt>
      <trkpt lat="45.89170840" lon="10.88303010">
        <ele>81.368774</ele>
        <time>2010-01-01T00:33:16Z</time>
      </trkpt>
      <trkpt lat="45.89154000" lon="10.88305120">
        <ele>81.849365</ele>
        <time>2010-01-01T00:33:23Z</time>
      </trkpt>
      <trkpt lat="45.89143990" lon="10.88308460">
        <ele>81.849365</ele>
        <time>2010-01-01T00:33:27Z</time>
      </trkpt>
      <trkpt lat="45.89129850" lon="10.88311540">
        <ele>82.330078</ele>
        <time>2010-01-01T00:33:33Z</time>
      </trkpt>
      <trkpt lat="45.89116540" lon="10.88313040">
        <ele>82.330078</ele>
        <time>2010-01-01T00:33:38Z</time>
      </trkpt>
      <trkpt lat="45.89100800" lon="10.88315940">
        <ele>84.252685</ele>
        <time>2010-01-01T00:33:45Z</time>
      </trkpt>
      <trkpt lat="45.89083400" lon="10.88318820">
        <ele>84.252685</ele>
        <time>2010-01-01T00:33:52Z</time>
      </trkpt>
      <trkpt lat="45.89070270" lon="10.88320670">
        <ele>84.733398</ele>
        <time>2010-01-01T00:33:57Z</time>
      </trkpt>
      <trkpt lat="45.89051310" lon="10.88324380">
        <ele>83.771972</ele>
        <time>2010-01-01T00:34:05Z</time>
      </trkpt>
      <trkpt lat="45.89034440" lon="10.88327230">
        <ele>83.291381</ele>
        <time>2010-01-01T00:34:11Z</time>
      </trkpt>
      <trkpt lat="45.89016340" lon="10.88329670">
        <ele>83.291381</ele>
        <time>2010-01-01T00:34:19Z</time>
      </trkpt>
      <trkpt lat="45.89003510" lon="10.88330720">
        <ele>82.810791</ele>
        <time>2010-01-01T00:34:24Z</time>
      </trkpt>
      <trkpt lat="45.88988160" lon="10.88332360">
        <ele>80.888183</ele>
        <time>2010-01-01T00:34:30Z</time>
      </trkpt>
      <trkpt lat="45.88975180" lon="10.88335520">
        <ele>79.926635</ele>
        <time>2010-01-01T00:34:35Z</time>
      </trkpt>
      <trkpt lat="45.88962550" lon="10.88338400">
        <ele>78.004028</ele>
        <time>2010-01-01T00:34:40Z</time>
      </trkpt>
      <trkpt lat="45.88946150" lon="10.88339020">
        <ele>78.484741</ele>
        <time>2010-01-01T00:34:47Z</time>
      </trkpt>
      <trkpt lat="45.88932120" lon="10.88341120">
        <ele>78.484741</ele>
        <time>2010-01-01T00:34:53Z</time>
      </trkpt>
      <trkpt lat="45.88916070" lon="10.88342280">
        <ele>77.042846</ele>
        <time>2010-01-01T00:34:59Z</time>
      </trkpt>
      <trkpt lat="45.88899380" lon="10.88345030">
        <ele>77.042846</ele>
        <time>2010-01-01T00:35:06Z</time>
      </trkpt>
      <trkpt lat="45.88880650" lon="10.88348900">
        <ele>78.004028</ele>
        <time>2010-01-01T00:35:13Z</time>
      </trkpt>
      <trkpt lat="45.88861460" lon="10.88352970">
        <ele>79.446044</ele>
        <time>2010-01-01T00:35:21Z</time>
      </trkpt>
      <trkpt lat="45.88847940" lon="10.88354080">
        <ele>79.446044</ele>
        <time>2010-01-01T00:35:27Z</time>
      </trkpt>
      <trkpt lat="45.88834380" lon="10.88353620">
        <ele>78.484741</ele>
        <time>2010-01-01T00:35:32Z</time>
      </trkpt>
      <trkpt lat="45.88818730" lon="10.88352400">
        <ele>78.004028</ele>
        <time>2010-01-01T00:35:38Z</time>
      </trkpt>
      <trkpt lat="45.88804600" lon="10.88352510">
        <ele>77.042846</ele>
        <time>2010-01-01T00:35:44Z</time>
      </trkpt>
      <trkpt lat="45.88797150" lon="10.88355520">
        <ele>79.446044</ele>
        <time>2010-01-01T00:35:47Z</time>
      </trkpt>
      <trkpt lat="45.88781270" lon="10.88354810">
        <ele>78.484741</ele>
        <time>2010-01-01T00:35:53Z</time>
      </trkpt>
      <trkpt lat="45.88765730" lon="10.88353240">
        <ele>78.004028</ele>
        <time>2010-01-01T00:36:00Z</time>
      </trkpt>
      <trkpt lat="45.88752390" lon="10.88350130">
        <ele>76.562133</ele>
        <time>2010-01-01T00:36:05Z</time>
      </trkpt>
      <trkpt lat="45.88740160" lon="10.88348810">
        <ele>78.484741</ele>
        <time>2010-01-01T00:36:10Z</time>
      </trkpt>
      <trkpt lat="45.88724210" lon="10.88347810">
        <ele>78.484741</ele>
        <time>2010-01-01T00:36:16Z</time>
      </trkpt>
      <trkpt lat="45.88710820" lon="10.88345480">
        <ele>77.523437</ele>
        <time>2010-01-01T00:36:22Z</time>
      </trkpt>
      <trkpt lat="45.88695610" lon="10.88341120">
        <ele>75.120239</ele>
        <time>2010-01-01T00:36:28Z</time>
      </trkpt>
      <trkpt lat="45.88676640" lon="10.88336410">
        <ele>73.678222</ele>
        <time>2010-01-01T00:36:36Z</time>
      </trkpt>
      <trkpt lat="45.88660350" lon="10.88332590">
        <ele>72.236206</ele>
        <time>2010-01-01T00:36:42Z</time>
      </trkpt>
      <trkpt lat="45.88643550" lon="10.88327710">
        <ele>72.236206</ele>
        <time>2010-01-01T00:36:49Z</time>
      </trkpt>
      <trkpt lat="45.88628880" lon="10.88324090">
        <ele>74.639526</ele>
        <time>2010-01-01T00:36:55Z</time>
      </trkpt>
      <trkpt lat="45.88612610" lon="10.88320080">
        <ele>76.562133</ele>
        <time>2010-01-01T00:37:02Z</time>
      </trkpt>
      <trkpt lat="45.88597400" lon="10.88315210">
        <ele>78.484741</ele>
        <time>2010-01-01T00:37:08Z</time>
      </trkpt>
      <trkpt lat="45.88581780" lon="10.88310700">
        <ele>79.926635</ele>
        <time>2010-01-01T00:37:14Z</time>
      </trkpt>
      <trkpt lat="45.88568710" lon="10.88306480">
        <ele>78.965454</ele>
        <time>2010-01-01T00:37:20Z</time>
      </trkpt>
      <trkpt lat="45.88551310" lon="10.88300000">
        <ele>78.484741</ele>
        <time>2010-01-01T00:37:27Z</time>
      </trkpt>
      <trkpt lat="45.88532390" lon="10.88292400">
        <ele>77.523437</ele>
        <time>2010-01-01T00:37:35Z</time>
      </trkpt>
      <trkpt lat="45.88514370" lon="10.88283480">
        <ele>75.600830</ele>
        <time>2010-01-01T00:37:42Z</time>
      </trkpt>
      <trkpt lat="45.88496500" lon="10.88275600">
        <ele>74.639526</ele>
        <time>2010-01-01T00:37:50Z</time>
      </trkpt>
      <trkpt lat="45.88481910" lon="10.88267670">
        <ele>75.600830</ele>
        <time>2010-01-01T00:37:56Z</time>
      </trkpt>
      <trkpt lat="45.88469650" lon="10.88261260">
        <ele>76.562133</ele>
        <time>2010-01-01T00:38:01Z</time>
      </trkpt>
      <trkpt lat="45.88453550" lon="10.88250830">
        <ele>78.004028</ele>
        <time>2010-01-01T00:38:08Z</time>
      </trkpt>
      <trkpt lat="45.88444110" lon="10.88236420">
        <ele>78.965454</ele>
        <time>2010-01-01T00:38:14Z</time>
      </trkpt>
      <trkpt lat="45.88436250" lon="10.88213160">
        <ele>77.042846</ele>
        <time>2010-01-01T00:38:21Z</time>
      </trkpt>
      <trkpt lat="45.88430860" lon="10.88191480">
        <ele>75.120239</ele>
        <time>2010-01-01T00:38:27Z</time>
      </trkpt>
      <trkpt lat="45.88422960" lon="10.88166680">
        <ele>75.600830</ele>
        <time>2010-01-01T00:38:35Z</time>
      </trkpt>
      <trkpt lat="45.88418350" lon="10.88144700">
        <ele>74.639526</ele>
        <time>2010-01-01T00:38:41Z</time>
      </trkpt>
      <trkpt lat="45.88423960" lon="10.88126100">
        <ele>73.678222</ele>
        <time>2010-01-01T00:38:47Z</time>
      </trkpt>
      <trkpt lat="45.88426230" lon="10.88110470">
        <ele>72.716918</ele>
        <time>2010-01-01T00:38:52Z</time>
      </trkpt>
      <trkpt lat="45.88415840" lon="10.88100220">
        <ele>71.755493</ele>
        <time>2010-01-01T00:38:57Z</time>
      </trkpt>
      <trkpt lat="45.88411590" lon="10.88099790">
        <ele>70.794189</ele>
        <time>2010-01-01T00:38:58Z</time>
      </trkpt>
      <trkpt lat="45.88397550" lon="10.88101700">
        <ele>69.832885</ele>
        <time>2010-01-01T00:39:04Z</time>
      </trkpt>
      <trkpt lat="45.88383110" lon="10.88105110">
        <ele>68.871582</ele>
        <time>2010-01-01T00:39:10Z</time>
      </trkpt>
      <trkpt lat="45.88370290" lon="10.88108030">
        <ele>68.871582</ele>
        <time>2010-01-01T00:39:15Z</time>
      </trkpt>
      <trkpt lat="45.88351190" lon="10.88108120">
        <ele>70.313476</ele>
        <time>2010-01-01T00:39:23Z</time>
      </trkpt>
      <trkpt lat="45.88336070" lon="10.88101190">
        <ele>72.236206</ele>
        <time>2010-01-01T00:39:29Z</time>
      </trkpt>
      <trkpt lat="45.88326230" lon="10.88097510">
        <ele>72.236206</ele>
        <time>2010-01-01T00:39:33Z</time>
      </trkpt>
      <trkpt lat="45.88308620" lon="10.88090820">
        <ele>73.678222</ele>
        <time>2010-01-01T00:39:40Z</time>
      </trkpt>
      <trkpt lat="45.88293250" lon="10.88086690">
        <ele>73.678222</ele>
        <time>2010-01-01T00:39:47Z</time>
      </trkpt>
      <trkpt lat="45.88281570" lon="10.88083630">
        <ele>73.678222</ele>
        <time>2010-01-01T00:39:51Z</time>
      </trkpt>
      <trkpt lat="45.88265950" lon="10.88081670">
        <ele>72.716918</ele>
        <time>2010-01-01T00:39:58Z</time>
      </trkpt>
      <trkpt lat="45.88248100" lon="10.88079280">
        <ele>73.678222</ele>
        <time>2010-01-01T00:40:05Z</time>
      </trkpt>
      <trkpt lat="45.88233010" lon="10.88072400">
        <ele>72.716918</ele>
        <time>2010-01-01T00:40:11Z</time>
      </trkpt>
      <trkpt lat="45.88221420" lon="10.88063210">
        <ele>70.313476</ele>
        <time>2010-01-01T00:40:17Z</time>
      </trkpt>
      <trkpt lat="45.88208310" lon="10.88049420">
        <ele>71.274902</ele>
        <time>2010-01-01T00:40:23Z</time>
      </trkpt>
      <trkpt lat="45.88198640" lon="10.88042930">
        <ele>70.794189</ele>
        <time>2010-01-01T00:40:27Z</time>
      </trkpt>
      <trkpt lat="45.88186570" lon="10.88055090">
        <ele>71.755493</ele>
        <time>2010-01-01T00:40:33Z</time>
      </trkpt>
      <trkpt lat="45.88184740" lon="10.88061650">
        <ele>72.236206</ele>
        <time>2010-01-01T00:40:35Z</time>
      </trkpt>
      <trkpt lat="45.88178820" lon="10.88086260">
        <ele>74.158813</ele>
        <time>2010-01-01T00:40:42Z</time>
      </trkpt>
      <trkpt lat="45.88175390" lon="10.88106760">
        <ele>77.042846</ele>
        <time>2010-01-01T00:40:48Z</time>
      </trkpt>
      <trkpt lat="45.88170410" lon="10.88132020">
        <ele>79.446044</ele>
        <time>2010-01-01T00:40:56Z</time>
      </trkpt>
      <trkpt lat="45.88168360" lon="10.88139270">
        <ele>80.407470</ele>
        <time>2010-01-01T00:40:58Z</time>
      </trkpt>
      <trkpt lat="45.88154860" lon="10.88143150">
        <ele>79.446044</ele>
        <time>2010-01-01T00:41:03Z</time>
      </trkpt>
      <trkpt lat="45.88137700" lon="10.88137080">
        <ele>78.004028</ele>
        <time>2010-01-01T00:41:10Z</time>
      </trkpt>
      <trkpt lat="45.88124860" lon="10.88132050">
        <ele>78.484741</ele>
        <time>2010-01-01T00:41:16Z</time>
      </trkpt>
      <trkpt lat="45.88109380" lon="10.88128210">
        <ele>78.965454</ele>
        <time>2010-01-01T00:41:22Z</time>
      </trkpt>
      <trkpt lat="45.88093740" lon="10.88124020">
        <ele>78.484741</ele>
        <time>2010-01-01T00:41:28Z</time>
      </trkpt>
      <trkpt lat="45.88078560" lon="10.88116370">
        <ele>77.523437</ele>
        <time>2010-01-01T00:41:35Z</time>
      </trkpt>
      <trkpt lat="45.88063940" lon="10.88108820">
        <ele>75.600830</ele>
        <time>2010-01-01T00:41:41Z</time>
      </trkpt>
      <trkpt lat="45.88051720" lon="10.88101710">
        <ele>74.639526</ele>
        <time>2010-01-01T00:41:46Z</time>
      </trkpt>
      <trkpt lat="45.88040080" lon="10.88092390">
        <ele>74.158813</ele>
        <time>2010-01-01T00:41:52Z</time>
      </trkpt>
      <trkpt lat="45.88028860" lon="10.88081390">
        <ele>73.197631</ele>
        <time>2010-01-01T00:41:57Z</time>
      </trkpt>
      <trkpt lat="45.88026920" lon="10.88079120">
        <ele>73.197631</ele>
        <time>2010-01-01T00:41:58Z</time>
      </trkpt>
      <trkpt lat="45.88018630" lon="10.88068450">
        <ele>71.755493</ele>
        <time>2010-01-01T00:42:03Z</time>
      </trkpt>
      <trkpt lat="45.88003320" lon="10.88050490">
        <ele>71.755493</ele>
        <time>2010-01-01T00:42:10Z</time>
      </trkpt>
      <trkpt lat="45.87989750" lon="10.88031220">
        <ele>73.197631</ele>
        <time>2010-01-01T00:42:18Z</time>
      </trkpt>
      <trkpt lat="45.87980710" lon="10.88017080">
        <ele>75.120239</ele>
        <time>2010-01-01T00:42:23Z</time>
      </trkpt>
      <trkpt lat="45.87972590" lon="10.88001360">
        <ele>75.600830</ele>
        <time>2010-01-01T00:42:29Z</time>
      </trkpt>
      <trkpt lat="45.87961850" lon="10.87983640">
        <ele>76.081420</ele>
        <time>2010-01-01T00:42:35Z</time>
      </trkpt>
      <trkpt lat="45.87953590" lon="10.87969980">
        <ele>76.081420</ele>
        <time>2010-01-01T00:42:40Z</time>
      </trkpt>
      <trkpt lat="45.87942320" lon="10.87949360">
        <ele>76.081420</ele>
        <time>2010-01-01T00:42:48Z</time>
      </trkpt>
      <trkpt lat="45.87934490" lon="10.87935010">
        <ele>76.562133</ele>
        <time>2010-01-01T00:42:53Z</time>
      </trkpt>
      <trkpt lat="45.87925730" lon="10.87915900">
        <ele>76.081420</ele>
        <time>2010-01-01T00:42:59Z</time>
      </trkpt>
      <trkpt lat="45.87918090" lon="10.87895680">
        <ele>77.042846</ele>
        <time>2010-01-01T00:43:06Z</time>
      </trkpt>
      <trkpt lat="45.87908760" lon="10.87878340">
        <ele>76.081420</ele>
        <time>2010-01-01T00:43:12Z</time>
      </trkpt>
      <trkpt lat="45.87896540" lon="10.87855940">
        <ele>76.562133</ele>
        <time>2010-01-01T00:43:20Z</time>
      </trkpt>
      <trkpt lat="45.87886310" lon="10.87840060">
        <ele>77.523437</ele>
        <time>2010-01-01T00:43:26Z</time>
      </trkpt>
      <trkpt lat="45.87870840" lon="10.87819480">
        <ele>78.004028</ele>
        <time>2010-01-01T00:43:34Z</time>
      </trkpt>
      <trkpt lat="45.87858860" lon="10.87804940">
        <ele>75.120239</ele>
        <time>2010-01-01T00:43:40Z</time>
      </trkpt>
      <trkpt lat="45.87848200" lon="10.87789690">
        <ele>75.120239</ele>
        <time>2010-01-01T00:43:46Z</time>
      </trkpt>
      <trkpt lat="45.87836340" lon="10.87775680">
        <ele>75.600830</ele>
        <time>2010-01-01T00:43:53Z</time>
      </trkpt>
      <trkpt lat="45.87827570" lon="10.87763090">
        <ele>77.042846</ele>
        <time>2010-01-01T00:43:58Z</time>
      </trkpt>
      <trkpt lat="45.87816600" lon="10.87751790">
        <ele>77.523437</ele>
        <time>2010-01-01T00:44:03Z</time>
      </trkpt>
      <trkpt lat="45.87805410" lon="10.87737610">
        <ele>77.523437</ele>
        <time>2010-01-01T00:44:09Z</time>
      </trkpt>
      <trkpt lat="45.87795510" lon="10.87725680">
        <ele>78.004028</ele>
        <time>2010-01-01T00:44:14Z</time>
      </trkpt>
      <trkpt lat="45.87782290" lon="10.87711240">
        <ele>78.484741</ele>
        <time>2010-01-01T00:44:21Z</time>
      </trkpt>
      <trkpt lat="45.87772710" lon="10.87699250">
        <ele>78.484741</ele>
        <time>2010-01-01T00:44:26Z</time>
      </trkpt>
      <trkpt lat="45.87759110" lon="10.87682670">
        <ele>76.562133</ele>
        <time>2010-01-01T00:44:33Z</time>
      </trkpt>
      <trkpt lat="45.87747150" lon="10.87669130">
        <ele>74.158813</ele>
        <time>2010-01-01T00:44:39Z</time>
      </trkpt>
      <trkpt lat="45.87735950" lon="10.87656800">
        <ele>73.678222</ele>
        <time>2010-01-01T00:44:45Z</time>
      </trkpt>
      <trkpt lat="45.87727350" lon="10.87646740">
        <ele>73.678222</ele>
        <time>2010-01-01T00:44:49Z</time>
      </trkpt>
      <trkpt lat="45.87716350" lon="10.87633950">
        <ele>72.716918</ele>
        <time>2010-01-01T00:44:55Z</time>
      </trkpt>
      <trkpt lat="45.87702530" lon="10.87618130">
        <ele>71.755493</ele>
        <time>2010-01-01T00:45:02Z</time>
      </trkpt>
      <trkpt lat="45.87687460" lon="10.87598660">
        <ele>72.236206</ele>
        <time>2010-01-01T00:45:10Z</time>
      </trkpt>
      <trkpt lat="45.87676640" lon="10.87583240">
        <ele>70.313476</ele>
        <time>2010-01-01T00:45:16Z</time>
      </trkpt>
      <trkpt lat="45.87667520" lon="10.87570210">
        <ele>69.832885</ele>
        <time>2010-01-01T00:45:21Z</time>
      </trkpt>
      <trkpt lat="45.87657360" lon="10.87552240">
        <ele>70.794189</ele>
        <time>2010-01-01T00:45:28Z</time>
      </trkpt>
      <trkpt lat="45.87652600" lon="10.87527910">
        <ele>70.794189</ele>
        <time>2010-01-01T00:45:35Z</time>
      </trkpt>
      <trkpt lat="45.87647630" lon="10.87505610">
        <ele>69.352294</ele>
        <time>2010-01-01T00:45:41Z</time>
      </trkpt>
      <trkpt lat="45.87639530" lon="10.87481700">
        <ele>66.468261</ele>
        <time>2010-01-01T00:45:49Z</time>
      </trkpt>
      <trkpt lat="45.87629760" lon="10.87462790">
        <ele>67.910278</ele>
        <time>2010-01-01T00:45:55Z</time>
      </trkpt>
      <trkpt lat="45.87618610" lon="10.87454050">
        <ele>69.352294</ele>
        <time>2010-01-01T00:46:00Z</time>
      </trkpt>
      <trkpt lat="45.87608360" lon="10.87455750">
        <ele>69.832885</ele>
        <time>2010-01-01T00:46:04Z</time>
      </trkpt>
      <trkpt lat="45.87596640" lon="10.87458860">
        <ele>71.274902</ele>
        <time>2010-01-01T00:46:09Z</time>
      </trkpt>
      <trkpt lat="45.87587740" lon="10.87451290">
        <ele>71.274902</ele>
        <time>2010-01-01T00:46:13Z</time>
      </trkpt>
      <trkpt lat="45.87573250" lon="10.87436380">
        <ele>70.794189</ele>
        <time>2010-01-01T00:46:21Z</time>
      </trkpt>
      <trkpt lat="45.87561510" lon="10.87421380">
        <ele>71.274902</ele>
        <time>2010-01-01T00:46:27Z</time>
      </trkpt>
      <trkpt lat="45.87551960" lon="10.87407830">
        <ele>71.274902</ele>
        <time>2010-01-01T00:46:32Z</time>
      </trkpt>
      <trkpt lat="45.87544450" lon="10.87397070">
        <ele>71.755493</ele>
        <time>2010-01-01T00:46:36Z</time>
      </trkpt>
      <trkpt lat="45.87534480" lon="10.87383190">
        <ele>71.274902</ele>
        <time>2010-01-01T00:46:42Z</time>
      </trkpt>
      <trkpt lat="45.87523240" lon="10.87366600">
        <ele>71.755493</ele>
        <time>2010-01-01T00:46:48Z</time>
      </trkpt>
      <trkpt lat="45.87509040" lon="10.87349600">
        <ele>74.158813</ele>
        <time>2010-01-01T00:46:56Z</time>
      </trkpt>
      <trkpt lat="45.87497080" lon="10.87333270">
        <ele>74.158813</ele>
        <time>2010-01-01T00:47:02Z</time>
      </trkpt>
      <trkpt lat="45.87486840" lon="10.87319110">
        <ele>74.639526</ele>
        <time>2010-01-01T00:47:08Z</time>
      </trkpt>
      <trkpt lat="45.87480620" lon="10.87300040">
        <ele>73.678222</ele>
        <time>2010-01-01T00:47:14Z</time>
      </trkpt>
      <trkpt lat="45.87480100" lon="10.87296250">
        <ele>73.197631</ele>
        <time>2010-01-01T00:47:15Z</time>
      </trkpt>
      <trkpt lat="45.87473370" lon="10.87297410">
        <ele>73.678222</ele>
        <time>2010-01-01T00:47:18Z</time>
      </trkpt>
      <trkpt lat="45.87469380" lon="10.87302110">
        <ele>74.158813</ele>
        <time>2010-01-01T00:47:20Z</time>
      </trkpt>
      <trkpt lat="45.87449140" lon="10.87311730">
        <ele>75.120239</ele>
        <time>2010-01-01T00:47:28Z</time>
      </trkpt>
      <trkpt lat="45.87434210" lon="10.87328990">
        <ele>74.158813</ele>
        <time>2010-01-01T00:47:36Z</time>
      </trkpt>
      <trkpt lat="45.87420380" lon="10.87341940">
        <ele>73.678222</ele>
        <time>2010-01-01T00:47:43Z</time>
      </trkpt>
      <trkpt lat="45.87403970" lon="10.87356560">
        <ele>73.197631</ele>
        <time>2010-01-01T00:47:50Z</time>
      </trkpt>
      <trkpt lat="45.87389130" lon="10.87367650">
        <ele>72.716918</ele>
        <time>2010-01-01T00:47:57Z</time>
      </trkpt>
      <trkpt lat="45.87372860" lon="10.87376160">
        <ele>70.794189</ele>
        <time>2010-01-01T00:48:04Z</time>
      </trkpt>
      <trkpt lat="45.87360490" lon="10.87383410">
        <ele>70.794189</ele>
        <time>2010-01-01T00:48:09Z</time>
      </trkpt>
      <trkpt lat="45.87345060" lon="10.87392820">
        <ele>71.274902</ele>
        <time>2010-01-01T00:48:16Z</time>
      </trkpt>
      <trkpt lat="45.87328430" lon="10.87402190">
        <ele>71.755493</ele>
        <time>2010-01-01T00:48:23Z</time>
      </trkpt>
      <trkpt lat="45.87311030" lon="10.87412810">
        <ele>71.274902</ele>
        <time>2010-01-01T00:48:31Z</time>
      </trkpt>
      <trkpt lat="45.87297040" lon="10.87417610">
        <ele>70.794189</ele>
        <time>2010-01-01T00:48:37Z</time>
      </trkpt>
      <trkpt lat="45.87284530" lon="10.87428220">
        <ele>70.794189</ele>
        <time>2010-01-01T00:48:42Z</time>
      </trkpt>
      <trkpt lat="45.87279310" lon="10.87431560">
        <ele>70.313476</ele>
        <time>2010-01-01T00:48:45Z</time>
      </trkpt>
      <trkpt lat="45.87267100" lon="10.87438190">
        <ele>70.794189</ele>
        <time>2010-01-01T00:48:50Z</time>
      </trkpt>
      <trkpt lat="45.87251590" lon="10.87447630">
        <ele>70.794189</ele>
        <time>2010-01-01T00:48:57Z</time>
      </trkpt>
      <trkpt lat="45.87239210" lon="10.87455130">
        <ele>70.794189</ele>
        <time>2010-01-01T00:49:02Z</time>
      </trkpt>
      <trkpt lat="45.87225770" lon="10.87462540">
        <ele>70.313476</ele>
        <time>2010-01-01T00:49:08Z</time>
      </trkpt>
      <trkpt lat="45.87214410" lon="10.87468910">
        <ele>70.313476</ele>
        <time>2010-01-01T00:49:13Z</time>
      </trkpt>
      <trkpt lat="45.87196370" lon="10.87480730">
        <ele>72.236206</ele>
        <time>2010-01-01T00:49:21Z</time>
      </trkpt>
      <trkpt lat="45.87179710" lon="10.87490300">
        <ele>71.755493</ele>
        <time>2010-01-01T00:49:28Z</time>
      </trkpt>
      <trkpt lat="45.87170070" lon="10.87496610">
        <ele>71.755493</ele>
        <time>2010-01-01T00:49:32Z</time>
      </trkpt>
      <trkpt lat="45.87152470" lon="10.87505990">
        <ele>70.794189</ele>
        <time>2010-01-01T00:49:40Z</time>
      </trkpt>
      <trkpt lat="45.87138850" lon="10.87515320">
        <ele>71.274902</ele>
        <time>2010-01-01T00:49:46Z</time>
      </trkpt>
      <trkpt lat="45.87124400" lon="10.87526460">
        <ele>70.794189</ele>
        <time>2010-01-01T00:49:52Z</time>
      </trkpt>
      <trkpt lat="45.87112290" lon="10.87544230">
        <ele>72.236206</ele>
        <time>2010-01-01T00:49:59Z</time>
      </trkpt>
      <trkpt lat="45.87102790" lon="10.87559540">
        <ele>72.236206</ele>
        <time>2010-01-01T00:50:05Z</time>
      </trkpt>
      <trkpt lat="45.87098020" lon="10.87566650">
        <ele>72.236206</ele>
        <time>2010-01-01T00:50:08Z</time>
      </trkpt>
      <trkpt lat="45.87086980" lon="10.87563640">
        <ele>71.274902</ele>
        <time>2010-01-01T00:50:12Z</time>
      </trkpt>
      <trkpt lat="45.87084700" lon="10.87561090">
        <ele>70.794189</ele>
        <time>2010-01-01T00:50:13Z</time>
      </trkpt>
      <trkpt lat="45.87070360" lon="10.87542150">
        <ele>69.352294</ele>
        <time>2010-01-01T00:50:21Z</time>
      </trkpt>
      <trkpt lat="45.87062830" lon="10.87525770">
        <ele>68.390869</ele>
        <time>2010-01-01T00:50:26Z</time>
      </trkpt>
      <trkpt lat="45.87057090" lon="10.87506310">
        <ele>67.910278</ele>
        <time>2010-01-01T00:50:32Z</time>
      </trkpt>
      <trkpt lat="45.87054800" lon="10.87485150">
        <ele>70.794189</ele>
        <time>2010-01-01T00:50:38Z</time>
      </trkpt>
      <trkpt lat="45.87050470" lon="10.87466510">
        <ele>71.755493</ele>
        <time>2010-01-01T00:50:44Z</time>
      </trkpt>
      <trkpt lat="45.87047390" lon="10.87451960">
        <ele>71.755493</ele>
        <time>2010-01-01T00:50:48Z</time>
      </trkpt>
      <trkpt lat="45.87042450" lon="10.87434140">
        <ele>71.755493</ele>
        <time>2010-01-01T00:50:53Z</time>
      </trkpt>
      <trkpt lat="45.87039420" lon="10.87416900">
        <ele>72.716918</ele>
        <time>2010-01-01T00:50:58Z</time>
      </trkpt>
      <trkpt lat="45.87040100" lon="10.87404150">
        <ele>73.197631</ele>
        <time>2010-01-01T00:51:02Z</time>
      </trkpt>
      <trkpt lat="45.87046000" lon="10.87391200">
        <ele>72.716918</ele>
        <time>2010-01-01T00:51:06Z</time>
      </trkpt>
      <trkpt lat="45.87055210" lon="10.87371670">
        <ele>72.236206</ele>
        <time>2010-01-01T00:51:13Z</time>
      </trkpt>
      <trkpt lat="45.87057250" lon="10.87365010">
        <ele>71.755493</ele>
        <time>2010-01-01T00:51:15Z</time>
      </trkpt>
      <trkpt lat="45.87051710" lon="10.87351890">
        <ele>71.274902</ele>
        <time>2010-01-01T00:51:19Z</time>
      </trkpt>
      <trkpt lat="45.87040880" lon="10.87336750">
        <ele>71.755493</ele>
        <time>2010-01-01T00:51:25Z</time>
      </trkpt>
      <trkpt lat="45.87042950" lon="10.87323200">
        <ele>72.236206</ele>
        <time>2010-01-01T00:51:29Z</time>
      </trkpt>
      <trkpt lat="45.87040830" lon="10.87304780">
        <ele>77.523437</ele>
        <time>2010-01-01T00:51:34Z</time>
      </trkpt>
      <trkpt lat="45.87038970" lon="10.87303430">
        <ele>76.562133</ele>
        <time>2010-01-01T00:51:35Z</time>
      </trkpt>
      <trkpt lat="45.87025340" lon="10.87290820">
        <ele>78.484741</ele>
        <time>2010-01-01T00:51:42Z</time>
      </trkpt>
      <trkpt lat="45.87014980" lon="10.87275930">
        <ele>73.678222</ele>
        <time>2010-01-01T00:51:47Z</time>
      </trkpt>
      <trkpt lat="45.87005050" lon="10.87265860">
        <ele>71.755493</ele>
        <time>2010-01-01T00:51:52Z</time>
      </trkpt>
      <trkpt lat="45.87009940" lon="10.87254810">
        <ele>68.871582</ele>
        <time>2010-01-01T00:51:56Z</time>
      </trkpt>
      <trkpt lat="45.87020780" lon="10.87238030">
        <ele>69.832885</ele>
        <time>2010-01-01T00:52:02Z</time>
      </trkpt>
      <trkpt lat="45.87031690" lon="10.87221450">
        <ele>71.755493</ele>
        <time>2010-01-01T00:52:09Z</time>
      </trkpt>
      <trkpt lat="45.87043760" lon="10.87200720">
        <ele>73.197631</ele>
        <time>2010-01-01T00:52:16Z</time>
      </trkpt>
      <trkpt lat="45.87056160" lon="10.87182560">
        <ele>72.236206</ele>
        <time>2010-01-01T00:52:23Z</time>
      </trkpt>
      <trkpt lat="45.87059950" lon="10.87177580">
        <ele>72.236206</ele>
        <time>2010-01-01T00:52:25Z</time>
      </trkpt>
      <trkpt lat="45.87070360" lon="10.87175300">
        <ele>71.755493</ele>
        <time>2010-01-01T00:52:30Z</time>
      </trkpt>
      <trkpt lat="45.87079770" lon="10.87179180">
        <ele>72.236206</ele>
        <time>2010-01-01T00:52:33Z</time>
      </trkpt>
      <trkpt lat="45.87086100" lon="10.87178550">
        <ele>71.755493</ele>
        <time>2010-01-01T00:52:36Z</time>
      </trkpt>
      <trkpt lat="45.87096680" lon="10.87160730">
        <ele>69.352294</ele>
        <time>2010-01-01T00:52:43Z</time>
      </trkpt>
      <trkpt lat="45.87097690" lon="10.87157180">
        <ele>69.832885</ele>
        <time>2010-01-01T00:52:44Z</time>
      </trkpt>
      <trkpt lat="45.87093770" lon="10.87145930">
        <ele>68.390869</ele>
        <time>2010-01-01T00:52:47Z</time>
      </trkpt>
      <trkpt lat="45.87080460" lon="10.87133480">
        <ele>68.871582</ele>
        <time>2010-01-01T00:52:53Z</time>
      </trkpt>
      <trkpt lat="45.87080200" lon="10.87118680">
        <ele>68.871582</ele>
        <time>2010-01-01T00:52:58Z</time>
      </trkpt>
      <trkpt lat="45.87089680" lon="10.87101770">
        <ele>68.390869</ele>
        <time>2010-01-01T00:53:04Z</time>
      </trkpt>
      <trkpt lat="45.87101970" lon="10.87088470">
        <ele>66.468261</ele>
        <time>2010-01-01T00:53:10Z</time>
      </trkpt>
      <trkpt lat="45.87115320" lon="10.87077760">
        <ele>65.507080</ele>
        <time>2010-01-01T00:53:16Z</time>
      </trkpt>
      <trkpt lat="45.87127590" lon="10.87065690">
        <ele>64.065063</ele>
        <time>2010-01-01T00:53:22Z</time>
      </trkpt>
      <trkpt lat="45.87140240" lon="10.87052050">
        <ele>65.026367</ele>
        <time>2010-01-01T00:53:28Z</time>
      </trkpt>
      <trkpt lat="45.87149280" lon="10.87038560">
        <ele>65.987670</ele>
        <time>2010-01-01T00:53:33Z</time>
      </trkpt>
      <trkpt lat="45.87160710" lon="10.87024970">
        <ele>65.507080</ele>
        <time>2010-01-01T00:53:39Z</time>
      </trkpt>
      <trkpt lat="45.87172900" lon="10.87018800">
        <ele>65.026367</ele>
        <time>2010-01-01T00:53:45Z</time>
      </trkpt>
      <trkpt lat="45.87182930" lon="10.87008530">
        <ele>65.026367</ele>
        <time>2010-01-01T00:53:49Z</time>
      </trkpt>
      <trkpt lat="45.87192750" lon="10.86997220">
        <ele>66.468261</ele>
        <time>2010-01-01T00:53:55Z</time>
      </trkpt>
      <trkpt lat="45.87205120" lon="10.86983560">
        <ele>65.507080</ele>
        <time>2010-01-01T00:54:01Z</time>
      </trkpt>
      <trkpt lat="45.87213020" lon="10.86970820">
        <ele>66.468261</ele>
        <time>2010-01-01T00:54:06Z</time>
      </trkpt>
      <trkpt lat="45.87220090" lon="10.86951760">
        <ele>66.468261</ele>
        <time>2010-01-01T00:54:12Z</time>
      </trkpt>
      <trkpt lat="45.87225640" lon="10.86933340">
        <ele>65.507080</ele>
        <time>2010-01-01T00:54:17Z</time>
      </trkpt>
      <trkpt lat="45.87232700" lon="10.86914030">
        <ele>63.103637</ele>
        <time>2010-01-01T00:54:23Z</time>
      </trkpt>
      <trkpt lat="45.87240010" lon="10.86891800">
        <ele>61.661743</ele>
        <time>2010-01-01T00:54:30Z</time>
      </trkpt>
      <trkpt lat="45.87244980" lon="10.86870500">
        <ele>62.142334</ele>
        <time>2010-01-01T00:54:36Z</time>
      </trkpt>
      <trkpt lat="45.87245170" lon="10.86852400">
        <ele>63.103637</ele>
        <time>2010-01-01T00:54:41Z</time>
      </trkpt>
      <trkpt lat="45.87246110" lon="10.86837090">
        <ele>62.622924</ele>
        <time>2010-01-01T00:54:46Z</time>
      </trkpt>
      <trkpt lat="45.87248100" lon="10.86815260">
        <ele>62.142334</ele>
        <time>2010-01-01T00:54:52Z</time>
      </trkpt>
      <trkpt lat="45.87247470" lon="10.86796630">
        <ele>62.142334</ele>
        <time>2010-01-01T00:54:57Z</time>
      </trkpt>
      <trkpt lat="45.87243320" lon="10.86774460">
        <ele>63.103637</ele>
        <time>2010-01-01T00:55:03Z</time>
      </trkpt>
      <trkpt lat="45.87243990" lon="10.86756840">
        <ele>64.545654</ele>
        <time>2010-01-01T00:55:08Z</time>
      </trkpt>
      <trkpt lat="45.87247830" lon="10.86751150">
        <ele>65.026367</ele>
        <time>2010-01-01T00:55:11Z</time>
      </trkpt>
      <trkpt lat="45.87256170" lon="10.86754240">
        <ele>65.987670</ele>
        <time>2010-01-01T00:55:14Z</time>
      </trkpt>
      <trkpt lat="45.87266070" lon="10.86766010">
        <ele>67.429687</ele>
        <time>2010-01-01T00:55:19Z</time>
      </trkpt>
      <trkpt lat="45.87270730" lon="10.86779490">
        <ele>67.910278</ele>
        <time>2010-01-01T00:55:23Z</time>
      </trkpt>
      <trkpt lat="45.87272150" lon="10.86782910">
        <ele>67.910278</ele>
        <time>2010-01-01T00:55:24Z</time>
      </trkpt>
      <trkpt lat="45.87281990" lon="10.86805180">
        <ele>66.948974</ele>
        <time>2010-01-01T00:55:32Z</time>
      </trkpt>
      <trkpt lat="45.87289680" lon="10.86824050">
        <ele>66.468261</ele>
        <time>2010-01-01T00:55:38Z</time>
      </trkpt>
      <trkpt lat="45.87295110" lon="10.86841090">
        <ele>66.948974</ele>
        <time>2010-01-01T00:55:43Z</time>
      </trkpt>
      <trkpt lat="45.87297350" lon="10.86847770">
        <ele>67.429687</ele>
        <time>2010-01-01T00:55:45Z</time>
      </trkpt>
      <trkpt lat="45.87308850" lon="10.86850710">
        <ele>69.352294</ele>
        <time>2010-01-01T00:55:50Z</time>
      </trkpt>
      <trkpt lat="45.87325420" lon="10.86841080">
        <ele>71.755493</ele>
        <time>2010-01-01T00:55:57Z</time>
      </trkpt>
      <trkpt lat="45.87339960" lon="10.86831600">
        <ele>72.236206</ele>
        <time>2010-01-01T00:56:03Z</time>
      </trkpt>
      <trkpt lat="45.87352060" lon="10.86823620">
        <ele>72.236206</ele>
        <time>2010-01-01T00:56:09Z</time>
      </trkpt>
      <trkpt lat="45.87364460" lon="10.86815450">
        <ele>70.794189</ele>
        <time>2010-01-01T00:56:14Z</time>
      </trkpt>
      <trkpt lat="45.87364890" lon="10.86802390">
        <ele>69.352294</ele>
        <time>2010-01-01T00:56:18Z</time>
      </trkpt>
      <trkpt lat="45.87361720" lon="10.86776490">
        <ele>66.948974</ele>
        <time>2010-01-01T00:56:25Z</time>
      </trkpt>
      <trkpt lat="45.87360580" lon="10.86757670">
        <ele>64.065063</ele>
        <time>2010-01-01T00:56:30Z</time>
      </trkpt>
      <trkpt lat="45.87359150" lon="10.86746140">
        <ele>63.103637</ele>
        <time>2010-01-01T00:56:34Z</time>
      </trkpt>
      <trkpt lat="45.87364280" lon="10.86736960">
        <ele>62.622924</ele>
        <time>2010-01-01T00:56:37Z</time>
      </trkpt>
      <trkpt lat="45.87374040" lon="10.86731680">
        <ele>62.142334</ele>
        <time>2010-01-01T00:56:41Z</time>
      </trkpt>
      <trkpt lat="45.87376240" lon="10.86729660">
        <ele>62.142334</ele>
        <time>2010-01-01T00:56:42Z</time>
      </trkpt>
      <trkpt lat="45.87385540" lon="10.86717280">
        <ele>64.065063</ele>
        <time>2010-01-01T00:56:47Z</time>
      </trkpt>
      <trkpt lat="45.87398750" lon="10.86707500">
        <ele>65.507080</ele>
        <time>2010-01-01T00:56:53Z</time>
      </trkpt>
      <trkpt lat="45.87412900" lon="10.86699560">
        <ele>69.832885</ele>
        <time>2010-01-01T00:56:59Z</time>
      </trkpt>
      <trkpt lat="45.87423840" lon="10.86694860">
        <ele>70.313476</ele>
        <time>2010-01-01T00:57:04Z</time>
      </trkpt>
      <trkpt lat="45.87434050" lon="10.86701270">
        <ele>71.274902</ele>
        <time>2010-01-01T00:57:08Z</time>
      </trkpt>
      <trkpt lat="45.87450790" lon="10.86713480">
        <ele>68.871582</ele>
        <time>2010-01-01T00:57:16Z</time>
      </trkpt>
      <trkpt lat="45.87463720" lon="10.86712250">
        <ele>71.274902</ele>
        <time>2010-01-01T00:57:21Z</time>
      </trkpt>
      <trkpt lat="45.87481400" lon="10.86705520">
        <ele>70.794189</ele>
        <time>2010-01-01T00:57:28Z</time>
      </trkpt>
      <trkpt lat="45.87493780" lon="10.86705370">
        <ele>70.794189</ele>
        <time>2010-01-01T00:57:33Z</time>
      </trkpt>
      <trkpt lat="45.87507560" lon="10.86706430">
        <ele>72.236206</ele>
        <time>2010-01-01T00:57:39Z</time>
      </trkpt>
      <trkpt lat="45.87526840" lon="10.86707850">
        <ele>72.236206</ele>
        <time>2010-01-01T00:57:47Z</time>
      </trkpt>
      <trkpt lat="45.87545010" lon="10.86706100">
        <ele>71.274902</ele>
        <time>2010-01-01T00:57:54Z</time>
      </trkpt>
      <trkpt lat="45.87554430" lon="10.86696120">
        <ele>67.910278</ele>
        <time>2010-01-01T00:57:59Z</time>
      </trkpt>
      <trkpt lat="45.87568320" lon="10.86684540">
        <ele>65.987670</ele>
        <time>2010-01-01T00:58:05Z</time>
      </trkpt>
      <trkpt lat="45.87579340" lon="10.86673910">
        <ele>65.507080</ele>
        <time>2010-01-01T00:58:10Z</time>
      </trkpt>
      <trkpt lat="45.87593230" lon="10.86655710">
        <ele>63.103637</ele>
        <time>2010-01-01T00:58:18Z</time>
      </trkpt>
      <trkpt lat="45.87603390" lon="10.86644690">
        <ele>65.026367</ele>
        <time>2010-01-01T00:58:23Z</time>
      </trkpt>
      <trkpt lat="45.87611210" lon="10.86635790">
        <ele>64.545654</ele>
        <time>2010-01-01T00:58:27Z</time>
      </trkpt>
      <trkpt lat="45.87623240" lon="10.86621910">
        <ele>66.468261</ele>
        <time>2010-01-01T00:58:33Z</time>
      </trkpt>
      <trkpt lat="45.87634930" lon="10.86606820">
        <ele>68.390869</ele>
        <time>2010-01-01T00:58:39Z</time>
      </trkpt>
      <trkpt lat="45.87644210" lon="10.86593400">
        <ele>71.755493</ele>
        <time>2010-01-01T00:58:45Z</time>
      </trkpt>
      <trkpt lat="45.87657680" lon="10.86575230">
        <ele>71.755493</ele>
        <time>2010-01-01T00:58:52Z</time>
      </trkpt>
      <trkpt lat="45.87669100" lon="10.86560250">
        <ele>67.910278</ele>
        <time>2010-01-01T00:58:58Z</time>
      </trkpt>
      <trkpt lat="45.87678340" lon="10.86541570">
        <ele>67.910278</ele>
        <time>2010-01-01T00:59:05Z</time>
      </trkpt>
      <trkpt lat="45.87688240" lon="10.86520680">
        <ele>67.429687</ele>
        <time>2010-01-01T00:59:12Z</time>
      </trkpt>
      <trkpt lat="45.87697900" lon="10.86498190">
        <ele>67.910278</ele>
        <time>2010-01-01T00:59:19Z</time>
      </trkpt>
      <trkpt lat="45.87708530" lon="10.86471880">
        <ele>68.390869</ele>
        <time>2010-01-01T00:59:27Z</time>
      </trkpt>
      <trkpt lat="45.87709950" lon="10.86454500">
        <ele>69.832885</ele>
        <time>2010-01-01T00:59:32Z</time>
      </trkpt>
      <trkpt lat="45.87705700" lon="10.86437860">
        <ele>71.274902</ele>
        <time>2010-01-01T00:59:37Z</time>
      </trkpt>
      <trkpt lat="45.87702690" lon="10.86423490">
        <ele>71.755493</ele>
        <time>2010-01-01T00:59:41Z</time>
      </trkpt>
      <trkpt lat="45.87699110" lon="10.86400910">
        <ele>71.755493</ele>
        <time>2010-01-01T00:59:48Z</time>
      </trkpt>
      <trkpt lat="45.87696630" lon="10.86390510">
        <ele>70.794189</ele>
        <time>2010-01-01T00:59:51Z</time>
      </trkpt>
      <trkpt lat="45.87693990" lon="10.86380210">
        <ele>71.274902</ele>
        <time>2010-01-01T00:59:54Z</time>
      </trkpt>
      <trkpt lat="45.87688340" lon="10.86359880">
        <ele>72.716918</ele>
        <time>2010-01-01T01:00:00Z</time>
      </trkpt>
      <trkpt lat="45.87684030" lon="10.86346210">
        <ele>73.678222</ele>
        <time>2010-01-01T01:00:04Z</time>
      </trkpt>
      <trkpt lat="45.87680150" lon="10.86328470">
        <ele>73.197631</ele>
        <time>2010-01-01T01:00:10Z</time>
      </trkpt>
      <trkpt lat="45.87676000" lon="10.86306080">
        <ele>72.236206</ele>
        <time>2010-01-01T01:00:16Z</time>
      </trkpt>
      <trkpt lat="45.87672940" lon="10.86283480">
        <ele>71.274902</ele>
        <time>2010-01-01T01:00:22Z</time>
      </trkpt>
      <trkpt lat="45.87671040" lon="10.86261840">
        <ele>69.832885</ele>
        <time>2010-01-01T01:00:28Z</time>
      </trkpt>
      <trkpt lat="45.87669160" lon="10.86240140">
        <ele>68.871582</ele>
        <time>2010-01-01T01:00:35Z</time>
      </trkpt>
      <trkpt lat="45.87666790" lon="10.86213780">
        <ele>69.352294</ele>
        <time>2010-01-01T01:00:42Z</time>
      </trkpt>
      <trkpt lat="45.87666050" lon="10.86196210">
        <ele>68.871582</ele>
        <time>2010-01-01T01:00:47Z</time>
      </trkpt>
      <trkpt lat="45.87663580" lon="10.86174510">
        <ele>68.871582</ele>
        <time>2010-01-01T01:00:53Z</time>
      </trkpt>
      <trkpt lat="45.87660370" lon="10.86153210">
        <ele>68.390869</ele>
        <time>2010-01-01T01:00:59Z</time>
      </trkpt>
      <trkpt lat="45.87659440" lon="10.86135190">
        <ele>68.390869</ele>
        <time>2010-01-01T01:01:04Z</time>
      </trkpt>
      <trkpt lat="45.87659370" lon="10.86115570">
        <ele>67.910278</ele>
        <time>2010-01-01T01:01:10Z</time>
      </trkpt>
      <trkpt lat="45.87659380" lon="10.86100740">
        <ele>67.910278</ele>
        <time>2010-01-01T01:01:14Z</time>
      </trkpt>
      <trkpt lat="45.87656480" lon="10.86079290">
        <ele>67.910278</ele>
        <time>2010-01-01T01:01:20Z</time>
      </trkpt>
      <trkpt lat="45.87653280" lon="10.86061420">
        <ele>67.429687</ele>
        <time>2010-01-01T01:01:25Z</time>
      </trkpt>
      <trkpt lat="45.87649430" lon="10.86038990">
        <ele>69.832885</ele>
        <time>2010-01-01T01:01:31Z</time>
      </trkpt>
      <trkpt lat="45.87646470" lon="10.86024340">
        <ele>70.313476</ele>
        <time>2010-01-01T01:01:36Z</time>
      </trkpt>
      <trkpt lat="45.87642590" lon="10.86004850">
        <ele>69.832885</ele>
        <time>2010-01-01T01:01:41Z</time>
      </trkpt>
      <trkpt lat="45.87637270" lon="10.85983540">
        <ele>70.313476</ele>
        <time>2010-01-01T01:01:48Z</time>
      </trkpt>
      <trkpt lat="45.87633330" lon="10.85961150">
        <ele>71.274902</ele>
        <time>2010-01-01T01:01:54Z</time>
      </trkpt>
      <trkpt lat="45.87629650" lon="10.85937670">
        <ele>72.716918</ele>
        <time>2010-01-01T01:02:01Z</time>
      </trkpt>
      <trkpt lat="45.87627680" lon="10.85923370">
        <ele>72.716918</ele>
        <time>2010-01-01T01:02:05Z</time>
      </trkpt>
      <trkpt lat="45.87627360" lon="10.85905150">
        <ele>73.197631</ele>
        <time>2010-01-01T01:02:10Z</time>
      </trkpt>
      <trkpt lat="45.87630150" lon="10.85885450">
        <ele>74.158813</ele>
        <time>2010-01-01T01:02:15Z</time>
      </trkpt>
      <trkpt lat="45.87636020" lon="10.85864590">
        <ele>76.081420</ele>
        <time>2010-01-01T01:02:22Z</time>
      </trkpt>
      <trkpt lat="45.87642770" lon="10.85847890">
        <ele>75.600830</ele>
        <time>2010-01-01T01:02:27Z</time>
      </trkpt>
      <trkpt lat="45.87652480" lon="10.85825110">
        <ele>74.639526</ele>
        <time>2010-01-01T01:02:35Z</time>
      </trkpt>
      <trkpt lat="45.87658620" lon="10.85808100">
        <ele>72.716918</ele>
        <time>2010-01-01T01:02:40Z</time>
      </trkpt>
      <trkpt lat="45.87662920" lon="10.85794180">
        <ele>71.274902</ele>
        <time>2010-01-01T01:02:44Z</time>
      </trkpt>
      <trkpt lat="45.87669930" lon="10.85779310">
        <ele>65.987670</ele>
        <time>2010-01-01T01:02:49Z</time>
      </trkpt>
      <trkpt lat="45.87676930" lon="10.85761650">
        <ele>69.352294</ele>
        <time>2010-01-01T01:02:55Z</time>
      </trkpt>
      <trkpt lat="45.87687850" lon="10.85744920">
        <ele>68.390869</ele>
        <time>2010-01-01T01:03:01Z</time>
      </trkpt>
      <trkpt lat="45.87699210" lon="10.85729580">
        <ele>70.313476</ele>
        <time>2010-01-01T01:03:07Z</time>
      </trkpt>
      <trkpt lat="45.87709160" lon="10.85719900">
        <ele>76.562133</ele>
        <time>2010-01-01T01:03:12Z</time>
      </trkpt>
      <trkpt lat="45.87724100" lon="10.85727860">
        <ele>73.678222</ele>
        <time>2010-01-01T01:03:19Z</time>
      </trkpt>
      <trkpt lat="45.87737140" lon="10.85736220">
        <ele>72.236206</ele>
        <time>2010-01-01T01:03:24Z</time>
      </trkpt>
      <trkpt lat="45.87748540" lon="10.85746470">
        <ele>71.755493</ele>
        <time>2010-01-01T01:03:30Z</time>
      </trkpt>
      <trkpt lat="45.87760380" lon="10.85756160">
        <ele>71.274902</ele>
        <time>2010-01-01T01:03:35Z</time>
      </trkpt>
      <trkpt lat="45.87776360" lon="10.85765290">
        <ele>71.755493</ele>
        <time>2010-01-01T01:03:42Z</time>
      </trkpt>
      <trkpt lat="45.87788760" lon="10.85758320">
        <ele>71.274902</ele>
        <time>2010-01-01T01:03:47Z</time>
      </trkpt>
      <trkpt lat="45.87799400" lon="10.85748910">
        <ele>69.352294</ele>
        <time>2010-01-01T01:03:52Z</time>
      </trkpt>
      <trkpt lat="45.87801480" lon="10.85737260">
        <ele>67.429687</ele>
        <time>2010-01-01T01:03:56Z</time>
      </trkpt>
      <trkpt lat="45.87806350" lon="10.85711880">
        <ele>65.507080</ele>
        <time>2010-01-01T01:04:03Z</time>
      </trkpt>
      <trkpt lat="45.87806930" lon="10.85708230">
        <ele>65.026367</ele>
        <time>2010-01-01T01:04:04Z</time>
      </trkpt>
      <trkpt lat="45.87813940" lon="10.85698250">
        <ele>64.545654</ele>
        <time>2010-01-01T01:04:08Z</time>
      </trkpt>
      <trkpt lat="45.87832440" lon="10.85680020">
        <ele>66.948974</ele>
        <time>2010-01-01T01:04:17Z</time>
      </trkpt>
      <trkpt lat="45.87848810" lon="10.85668930">
        <ele>68.390869</ele>
        <time>2010-01-01T01:04:24Z</time>
      </trkpt>
      <trkpt lat="45.87864050" lon="10.85654890">
        <ele>68.871582</ele>
        <time>2010-01-01T01:04:32Z</time>
      </trkpt>
      <trkpt lat="45.87874100" lon="10.85645150">
        <ele>69.832885</ele>
        <time>2010-01-01T01:04:36Z</time>
      </trkpt>
      <trkpt lat="45.87873790" lon="10.85628290">
        <ele>68.871582</ele>
        <time>2010-01-01T01:04:41Z</time>
      </trkpt>
      <trkpt lat="45.87870230" lon="10.85606440">
        <ele>70.313476</ele>
        <time>2010-01-01T01:04:47Z</time>
      </trkpt>
      <trkpt lat="45.87867160" lon="10.85587910">
        <ele>71.274902</ele>
        <time>2010-01-01T01:04:53Z</time>
      </trkpt>
      <trkpt lat="45.87860930" lon="10.85571950">
        <ele>69.352294</ele>
        <time>2010-01-01T01:04:58Z</time>
      </trkpt>
      <trkpt lat="45.87860010" lon="10.85568260">
        <ele>68.871582</ele>
        <time>2010-01-01T01:04:59Z</time>
      </trkpt>
      <trkpt lat="45.87866070" lon="10.85547450">
        <ele>67.429687</ele>
        <time>2010-01-01T01:05:05Z</time>
      </trkpt>
      <trkpt lat="45.87872640" lon="10.85532180">
        <ele>66.468261</ele>
        <time>2010-01-01T01:05:10Z</time>
      </trkpt>
      <trkpt lat="45.87883820" lon="10.85518920">
        <ele>65.026367</ele>
        <time>2010-01-01T01:05:16Z</time>
      </trkpt>
      <trkpt lat="45.87891510" lon="10.85503370">
        <ele>65.987670</ele>
        <time>2010-01-01T01:05:21Z</time>
      </trkpt>
      <trkpt lat="45.87902070" lon="10.85500160">
        <ele>66.948974</ele>
        <time>2010-01-01T01:05:26Z</time>
      </trkpt>
      <trkpt lat="45.87910310" lon="10.85495810">
        <ele>67.429687</ele>
        <time>2010-01-01T01:05:29Z</time>
      </trkpt>
      <trkpt lat="45.87920750" lon="10.85472610">
        <ele>69.352294</ele>
        <time>2010-01-01T01:05:37Z</time>
      </trkpt>
      <trkpt lat="45.87930200" lon="10.85458870">
        <ele>70.794189</ele>
        <time>2010-01-01T01:05:42Z</time>
      </trkpt>
      <trkpt lat="45.87937250" lon="10.85446730">
        <ele>71.274902</ele>
        <time>2010-01-01T01:05:47Z</time>
      </trkpt>
      <trkpt lat="45.87941900" lon="10.85439130">
        <ele>72.236206</ele>
        <time>2010-01-01T01:05:49Z</time>
      </trkpt>
      <trkpt lat="45.87945220" lon="10.85432970">
        <ele>72.716918</ele>
        <time>2010-01-01T01:05:52Z</time>
      </trkpt>
      <trkpt lat="45.87952510" lon="10.85416700">
        <ele>71.755493</ele>
        <time>2010-01-01T01:05:57Z</time>
      </trkpt>
      <trkpt lat="45.87959880" lon="10.85403020">
        <ele>68.390869</ele>
        <time>2010-01-01T01:06:02Z</time>
      </trkpt>
      <trkpt lat="45.87967250" lon="10.85387860">
        <ele>66.948974</ele>
        <time>2010-01-01T01:06:07Z</time>
      </trkpt>
      <trkpt lat="45.87973920" lon="10.85371790">
        <ele>66.468261</ele>
        <time>2010-01-01T01:06:12Z</time>
      </trkpt>
      <trkpt lat="45.87977870" lon="10.85361880">
        <ele>65.987670</ele>
        <time>2010-01-01T01:06:15Z</time>
      </trkpt>
      <trkpt lat="45.87973400" lon="10.85345890">
        <ele>64.545654</ele>
        <time>2010-01-01T01:06:20Z</time>
      </trkpt>
      <trkpt lat="45.87964960" lon="10.85331180">
        <ele>65.507080</ele>
        <time>2010-01-01T01:06:25Z</time>
      </trkpt>
      <trkpt lat="45.87954010" lon="10.85316670">
        <ele>65.987670</ele>
        <time>2010-01-01T01:06:31Z</time>
      </trkpt>
      <trkpt lat="45.87943130" lon="10.85301350">
        <ele>66.948974</ele>
        <time>2010-01-01T01:06:38Z</time>
      </trkpt>
      <trkpt lat="45.87939580" lon="10.85296430">
        <ele>66.948974</ele>
        <time>2010-01-01T01:06:40Z</time>
      </trkpt>
      <trkpt lat="45.87943770" lon="10.85282020">
        <ele>66.468261</ele>
        <time>2010-01-01T01:06:44Z</time>
      </trkpt>
      <trkpt lat="45.87953490" lon="10.85264730">
        <ele>65.987670</ele>
        <time>2010-01-01T01:06:50Z</time>
      </trkpt>
      <trkpt lat="45.87961640" lon="10.85251410">
        <ele>65.507080</ele>
        <time>2010-01-01T01:06:55Z</time>
      </trkpt>
      <trkpt lat="45.87968360" lon="10.85236470">
        <ele>65.507080</ele>
        <time>2010-01-01T01:07:00Z</time>
      </trkpt>
      <trkpt lat="45.87974270" lon="10.85221680">
        <ele>65.507080</ele>
        <time>2010-01-01T01:07:05Z</time>
      </trkpt>
      <trkpt lat="45.87981290" lon="10.85205320">
        <ele>65.507080</ele>
        <time>2010-01-01T01:07:10Z</time>
      </trkpt>
      <trkpt lat="45.87989520" lon="10.85187750">
        <ele>64.065063</ele>
        <time>2010-01-01T01:07:16Z</time>
      </trkpt>
      <trkpt lat="45.87996360" lon="10.85171220">
        <ele>62.622924</ele>
        <time>2010-01-01T01:07:21Z</time>
      </trkpt>
      <trkpt lat="45.88002660" lon="10.85156610">
        <ele>61.181030</ele>
        <time>2010-01-01T01:07:26Z</time>
      </trkpt>
      <trkpt lat="45.88005310" lon="10.85142470">
        <ele>61.181030</ele>
        <time>2010-01-01T01:07:30Z</time>
      </trkpt>
      <trkpt lat="45.88003790" lon="10.85120460">
        <ele>64.545654</ele>
        <time>2010-01-01T01:07:36Z</time>
      </trkpt>
      <trkpt lat="45.88008630" lon="10.85098290">
        <ele>65.507080</ele>
        <time>2010-01-01T01:07:43Z</time>
      </trkpt>
      <trkpt lat="45.88012040" lon="10.85080460">
        <ele>65.987670</ele>
        <time>2010-01-01T01:07:48Z</time>
      </trkpt>
      <trkpt lat="45.88015940" lon="10.85063620">
        <ele>66.468261</ele>
        <time>2010-01-01T01:07:53Z</time>
      </trkpt>
      <trkpt lat="45.88022470" lon="10.85044050">
        <ele>68.390869</ele>
        <time>2010-01-01T01:07:59Z</time>
      </trkpt>
      <trkpt lat="45.88033940" lon="10.85026020">
        <ele>69.352294</ele>
        <time>2010-01-01T01:08:06Z</time>
      </trkpt>
      <trkpt lat="45.88043810" lon="10.85008980">
        <ele>70.794189</ele>
        <time>2010-01-01T01:08:12Z</time>
      </trkpt>
      <trkpt lat="45.88052950" lon="10.85000230">
        <ele>70.794189</ele>
        <time>2010-01-01T01:08:16Z</time>
      </trkpt>
      <trkpt lat="45.88062860" lon="10.84988620">
        <ele>71.274902</ele>
        <time>2010-01-01T01:08:21Z</time>
      </trkpt>
      <trkpt lat="45.88076390" lon="10.84979460">
        <ele>71.755493</ele>
        <time>2010-01-01T01:08:27Z</time>
      </trkpt>
      <trkpt lat="45.88078400" lon="10.84977230">
        <ele>72.236206</ele>
        <time>2010-01-01T01:08:28Z</time>
      </trkpt>
      <trkpt lat="45.88088140" lon="10.84981520">
        <ele>72.716918</ele>
        <time>2010-01-01T01:08:33Z</time>
      </trkpt>
      <trkpt lat="45.88098700" lon="10.84981680">
        <ele>72.236206</ele>
        <time>2010-01-01T01:08:37Z</time>
      </trkpt>
      <trkpt lat="45.88105350" lon="10.84978210">
        <ele>71.755493</ele>
        <time>2010-01-01T01:08:40Z</time>
      </trkpt>
      <trkpt lat="45.88114600" lon="10.84964310">
        <ele>71.274902</ele>
        <time>2010-01-01T01:08:45Z</time>
      </trkpt>
      <trkpt lat="45.88123320" lon="10.84944690">
        <ele>71.755493</ele>
        <time>2010-01-01T01:08:51Z</time>
      </trkpt>
      <trkpt lat="45.88131920" lon="10.84935680">
        <ele>71.755493</ele>
        <time>2010-01-01T01:08:56Z</time>
      </trkpt>
      <trkpt lat="45.88140280" lon="10.84922430">
        <ele>71.274902</ele>
        <time>2010-01-01T01:09:01Z</time>
      </trkpt>
      <trkpt lat="45.88146860" lon="10.84911850">
        <ele>69.352294</ele>
        <time>2010-01-01T01:09:05Z</time>
      </trkpt>
      <trkpt lat="45.88151240" lon="10.84899190">
        <ele>68.871582</ele>
        <time>2010-01-01T01:09:09Z</time>
      </trkpt>
      <trkpt lat="45.88148110" lon="10.84880100">
        <ele>68.390869</ele>
        <time>2010-01-01T01:09:14Z</time>
      </trkpt>
      <trkpt lat="45.88147140" lon="10.84861120">
        <ele>65.987670</ele>
        <time>2010-01-01T01:09:19Z</time>
      </trkpt>
      <trkpt lat="45.88146740" lon="10.84849690">
        <ele>65.507080</ele>
        <time>2010-01-01T01:09:23Z</time>
      </trkpt>
      <trkpt lat="45.88153520" lon="10.84827270">
        <ele>67.429687</ele>
        <time>2010-01-01T01:09:29Z</time>
      </trkpt>
      <trkpt lat="45.88157950" lon="10.84810490">
        <ele>66.948974</ele>
        <time>2010-01-01T01:09:34Z</time>
      </trkpt>
      <trkpt lat="45.88159190" lon="10.84785940">
        <ele>72.236206</ele>
        <time>2010-01-01T01:09:41Z</time>
      </trkpt>
      <trkpt lat="45.88162180" lon="10.84768910">
        <ele>73.678222</ele>
        <time>2010-01-01T01:09:46Z</time>
      </trkpt>
      <trkpt lat="45.88162090" lon="10.84766550">
        <ele>74.158813</ele>
        <time>2010-01-01T01:09:47Z</time>
      </trkpt>
      <trkpt lat="45.88160650" lon="10.84743770">
        <ele>75.120239</ele>
        <time>2010-01-01T01:09:53Z</time>
      </trkpt>
      <trkpt lat="45.88160670" lon="10.84719680">
        <ele>78.004028</ele>
        <time>2010-01-01T01:10:00Z</time>
      </trkpt>
      <trkpt lat="45.88164190" lon="10.84704250">
        <ele>72.236206</ele>
        <time>2010-01-01T01:10:04Z</time>
      </trkpt>
      <trkpt lat="45.88162790" lon="10.84686300">
        <ele>71.755493</ele>
        <time>2010-01-01T01:10:09Z</time>
      </trkpt>
      <trkpt lat="45.88162470" lon="10.84665380">
        <ele>67.429687</ele>
        <time>2010-01-01T01:10:15Z</time>
      </trkpt>
      <trkpt lat="45.88161780" lon="10.84653720">
        <ele>65.987670</ele>
        <time>2010-01-01T01:10:19Z</time>
      </trkpt>
      <trkpt lat="45.88160460" lon="10.84636910">
        <ele>65.987670</ele>
        <time>2010-01-01T01:10:23Z</time>
      </trkpt>
      <trkpt lat="45.88161750" lon="10.84619120">
        <ele>65.987670</ele>
        <time>2010-01-01T01:10:28Z</time>
      </trkpt>
      <trkpt lat="45.88163700" lon="10.84602740">
        <ele>65.987670</ele>
        <time>2010-01-01T01:10:33Z</time>
      </trkpt>
      <trkpt lat="45.88164190" lon="10.84580550">
        <ele>66.948974</ele>
        <time>2010-01-01T01:10:39Z</time>
      </trkpt>
      <trkpt lat="45.88169160" lon="10.84561760">
        <ele>66.948974</ele>
        <time>2010-01-01T01:10:45Z</time>
      </trkpt>
      <trkpt lat="45.88170500" lon="10.84559560">
        <ele>65.987670</ele>
        <time>2010-01-01T01:10:45Z</time>
      </trkpt>
      <trkpt lat="45.88184760" lon="10.84563750">
        <ele>68.871582</ele>
        <time>2010-01-01T01:10:51Z</time>
      </trkpt>
      <trkpt lat="45.88196020" lon="10.84567130">
        <ele>71.274902</ele>
        <time>2010-01-01T01:10:56Z</time>
      </trkpt>
      <trkpt lat="45.88206800" lon="10.84573740">
        <ele>75.120239</ele>
        <time>2010-01-01T01:11:01Z</time>
      </trkpt>
      <trkpt lat="45.88214750" lon="10.84577130">
        <ele>77.042846</ele>
        <time>2010-01-01T01:11:04Z</time>
      </trkpt>
      <trkpt lat="45.88228260" lon="10.84582500">
        <ele>79.926635</ele>
        <time>2010-01-01T01:11:10Z</time>
      </trkpt>
      <trkpt lat="45.88247130" lon="10.84587350">
        <ele>85.213989</ele>
        <time>2010-01-01T01:11:17Z</time>
      </trkpt>
      <trkpt lat="45.88258940" lon="10.84590650">
        <ele>84.252685</ele>
        <time>2010-01-01T01:11:22Z</time>
      </trkpt>
      <trkpt lat="45.88271560" lon="10.84587850">
        <ele>81.849365</ele>
        <time>2010-01-01T01:11:27Z</time>
      </trkpt>
      <trkpt lat="45.88283010" lon="10.84578720">
        <ele>75.600830</ele>
        <time>2010-01-01T01:11:32Z</time>
      </trkpt>
      <trkpt lat="45.88291680" lon="10.84565930">
        <ele>72.236206</ele>
        <time>2010-01-01T01:11:37Z</time>
      </trkpt>
      <trkpt lat="45.88301470" lon="10.84550990">
        <ele>68.390869</ele>
        <time>2010-01-01T01:11:43Z</time>
      </trkpt>
      <trkpt lat="45.88308280" lon="10.84536330">
        <ele>67.429687</ele>
        <time>2010-01-01T01:11:48Z</time>
      </trkpt>
      <trkpt lat="45.88310770" lon="10.84529760">
        <ele>67.429687</ele>
        <time>2010-01-01T01:11:50Z</time>
      </trkpt>
      <trkpt lat="45.88318090" lon="10.84506980">
        <ele>66.948974</ele>
        <time>2010-01-01T01:11:57Z</time>
      </trkpt>
      <trkpt lat="45.88320780" lon="10.84489950">
        <ele>66.948974</ele>
        <time>2010-01-01T01:12:02Z</time>
      </trkpt>
      <trkpt lat="45.88327830" lon="10.84470460">
        <ele>67.910278</ele>
        <time>2010-01-01T01:12:08Z</time>
      </trkpt>
      <trkpt lat="45.88338390" lon="10.84450290">
        <ele>74.158813</ele>
        <time>2010-01-01T01:12:15Z</time>
      </trkpt>
      <trkpt lat="45.88349310" lon="10.84442360">
        <ele>78.484741</ele>
        <time>2010-01-01T01:12:20Z</time>
      </trkpt>
      <trkpt lat="45.88362210" lon="10.84442980">
        <ele>79.926635</ele>
        <time>2010-01-01T01:12:25Z</time>
      </trkpt>
      <trkpt lat="45.88377850" lon="10.84447200">
        <ele>79.926635</ele>
        <time>2010-01-01T01:12:31Z</time>
      </trkpt>
      <trkpt lat="45.88393260" lon="10.84450290">
        <ele>80.407470</ele>
        <time>2010-01-01T01:12:38Z</time>
      </trkpt>
      <trkpt lat="45.88410550" lon="10.84455450">
        <ele>80.888183</ele>
        <time>2010-01-01T01:12:45Z</time>
      </trkpt>
      <trkpt lat="45.88425300" lon="10.84462210">
        <ele>81.368774</ele>
        <time>2010-01-01T01:12:51Z</time>
      </trkpt>
      <trkpt lat="45.88438970" lon="10.84466550">
        <ele>80.888183</ele>
        <time>2010-01-01T01:12:57Z</time>
      </trkpt>
      <trkpt lat="45.88450440" lon="10.84470450">
        <ele>78.004028</ele>
        <time>2010-01-01T01:13:01Z</time>
      </trkpt>
      <trkpt lat="45.88465660" lon="10.84478440">
        <ele>81.849365</ele>
        <time>2010-01-01T01:13:08Z</time>
      </trkpt>
      <trkpt lat="45.88476910" lon="10.84481700">
        <ele>82.810791</ele>
        <time>2010-01-01T01:13:12Z</time>
      </trkpt>
      <trkpt lat="45.88491210" lon="10.84482530">
        <ele>83.771972</ele>
        <time>2010-01-01T01:13:18Z</time>
      </trkpt>
      <trkpt lat="45.88505300" lon="10.84493250">
        <ele>81.368774</ele>
        <time>2010-01-01T01:13:25Z</time>
      </trkpt>
      <trkpt lat="45.88519540" lon="10.84502630">
        <ele>79.926635</ele>
        <time>2010-01-01T01:13:31Z</time>
      </trkpt>
      <trkpt lat="45.88533710" lon="10.84510660">
        <ele>78.484741</ele>
        <time>2010-01-01T01:13:37Z</time>
      </trkpt>
      <trkpt lat="45.88542580" lon="10.84517340">
        <ele>77.523437</ele>
        <time>2010-01-01T01:13:41Z</time>
      </trkpt>
      <trkpt lat="45.88553370" lon="10.84521860">
        <ele>79.446044</ele>
        <time>2010-01-01T01:13:45Z</time>
      </trkpt>
      <trkpt lat="45.88568560" lon="10.84529260">
        <ele>80.407470</ele>
        <time>2010-01-01T01:13:52Z</time>
      </trkpt>
      <trkpt lat="45.88574140" lon="10.84533550">
        <ele>80.407470</ele>
        <time>2010-01-01T01:13:54Z</time>
      </trkpt>
      <trkpt lat="45.88579150" lon="10.84552040">
        <ele>80.407470</ele>
        <time>2010-01-01T01:14:00Z</time>
      </trkpt>
      <trkpt lat="45.88583410" lon="10.84560320">
        <ele>79.926635</ele>
        <time>2010-01-01T01:14:03Z</time>
      </trkpt>
      <trkpt lat="45.88595940" lon="10.84572130">
        <ele>79.926635</ele>
        <time>2010-01-01T01:14:09Z</time>
      </trkpt>
      <trkpt lat="45.88603080" lon="10.84561870">
        <ele>78.965454</ele>
        <time>2010-01-01T01:14:13Z</time>
      </trkpt>
      <trkpt lat="45.88610500" lon="10.84561920">
        <ele>80.407470</ele>
        <time>2010-01-01T01:14:16Z</time>
      </trkpt>
      <trkpt lat="45.88629060" lon="10.84566960">
        <ele>83.771972</ele>
        <time>2010-01-01T01:14:23Z</time>
      </trkpt>
      <trkpt lat="45.88643510" lon="10.84568870">
        <ele>87.136596</ele>
        <time>2010-01-01T01:14:29Z</time>
      </trkpt>
      <trkpt lat="45.88652620" lon="10.84572250">
        <ele>88.578735</ele>
        <time>2010-01-01T01:14:33Z</time>
      </trkpt>
      <trkpt lat="45.88666030" lon="10.84575190">
        <ele>90.981933</ele>
        <time>2010-01-01T01:14:38Z</time>
      </trkpt>
      <trkpt lat="45.88670690" lon="10.84575590">
        <ele>91.462524</ele>
        <time>2010-01-01T01:14:40Z</time>
      </trkpt>
      <trkpt lat="45.88686400" lon="10.84582710">
        <ele>91.462524</ele>
        <time>2010-01-01T01:14:47Z</time>
      </trkpt>
      <trkpt lat="45.88697800" lon="10.84587480">
        <ele>92.423950</ele>
        <time>2010-01-01T01:14:52Z</time>
      </trkpt>
      <trkpt lat="45.88716470" lon="10.84596030">
        <ele>90.501342</ele>
        <time>2010-01-01T01:14:59Z</time>
      </trkpt>
      <trkpt lat="45.88730010" lon="10.84599730">
        <ele>90.981933</ele>
        <time>2010-01-01T01:15:05Z</time>
      </trkpt>
      <trkpt lat="45.88747810" lon="10.84608030">
        <ele>90.020629</ele>
        <time>2010-01-01T01:15:12Z</time>
      </trkpt>
      <trkpt lat="45.88757610" lon="10.84621100">
        <ele>87.136596</ele>
        <time>2010-01-01T01:15:18Z</time>
      </trkpt>
      <trkpt lat="45.88765080" lon="10.84618550">
        <ele>86.656005</ele>
        <time>2010-01-01T01:15:21Z</time>
      </trkpt>
      <trkpt lat="45.88767780" lon="10.84618750">
        <ele>86.175293</ele>
        <time>2010-01-01T01:15:22Z</time>
      </trkpt>
      <trkpt lat="45.88788130" lon="10.84625650">
        <ele>82.330078</ele>
        <time>2010-01-01T01:15:30Z</time>
      </trkpt>
      <trkpt lat="45.88808330" lon="10.84630360">
        <ele>82.810791</ele>
        <time>2010-01-01T01:15:38Z</time>
      </trkpt>
      <trkpt lat="45.88821900" lon="10.84628870">
        <ele>84.252685</ele>
        <time>2010-01-01T01:15:44Z</time>
      </trkpt>
      <trkpt lat="45.88831530" lon="10.84628700">
        <ele>84.733398</ele>
        <time>2010-01-01T01:15:48Z</time>
      </trkpt>
      <trkpt lat="45.88837990" lon="10.84632470">
        <ele>85.694580</ele>
        <time>2010-01-01T01:15:51Z</time>
      </trkpt>
      <trkpt lat="45.88840090" lon="10.84634090">
        <ele>85.213989</ele>
        <time>2010-01-01T01:15:52Z</time>
      </trkpt>
      <trkpt lat="45.88844080" lon="10.84651910">
        <ele>83.291381</ele>
        <time>2010-01-01T01:15:57Z</time>
      </trkpt>
      <trkpt lat="45.88843570" lon="10.84671220">
        <ele>83.771972</ele>
        <time>2010-01-01T01:16:02Z</time>
      </trkpt>
      <trkpt lat="45.88844990" lon="10.84689330">
        <ele>81.368774</ele>
        <time>2010-01-01T01:16:07Z</time>
      </trkpt>
      <trkpt lat="45.88847860" lon="10.84711570">
        <ele>80.888183</ele>
        <time>2010-01-01T01:16:13Z</time>
      </trkpt>
      <trkpt lat="45.88854730" lon="10.84727230">
        <ele>82.330078</ele>
        <time>2010-01-01T01:16:19Z</time>
      </trkpt>
      <trkpt lat="45.88864010" lon="10.84745350">
        <ele>83.771972</ele>
        <time>2010-01-01T01:16:25Z</time>
      </trkpt>
      <trkpt lat="45.88873650" lon="10.84762780">
        <ele>85.694580</ele>
        <time>2010-01-01T01:16:31Z</time>
      </trkpt>
      <trkpt lat="45.88884990" lon="10.84786600">
        <ele>88.098022</ele>
        <time>2010-01-01T01:16:39Z</time>
      </trkpt>
      <trkpt lat="45.88894470" lon="10.84807630">
        <ele>87.617187</ele>
        <time>2010-01-01T01:16:46Z</time>
      </trkpt>
      <trkpt lat="45.88889090" lon="10.84820970">
        <ele>88.578735</ele>
        <time>2010-01-01T01:16:50Z</time>
      </trkpt>
      <trkpt lat="45.88885890" lon="10.84839700">
        <ele>90.020629</ele>
        <time>2010-01-01T01:16:56Z</time>
      </trkpt>
      <trkpt lat="45.88891320" lon="10.84840710">
        <ele>88.098022</ele>
        <time>2010-01-01T01:16:58Z</time>
      </trkpt>
      <trkpt lat="45.88898790" lon="10.84840630">
        <ele>88.578735</ele>
        <time>2010-01-01T01:17:01Z</time>
      </trkpt>
      <trkpt lat="45.88903190" lon="10.84841460">
        <ele>88.578735</ele>
        <time>2010-01-01T01:17:03Z</time>
      </trkpt>
      <trkpt lat="45.88908200" lon="10.84843010">
        <ele>88.098022</ele>
        <time>2010-01-01T01:17:05Z</time>
      </trkpt>
      <trkpt lat="45.88919080" lon="10.84860610">
        <ele>86.656005</ele>
        <time>2010-01-01T01:17:11Z</time>
      </trkpt>
      <trkpt lat="45.88925440" lon="10.84874440">
        <ele>86.175293</ele>
        <time>2010-01-01T01:17:16Z</time>
      </trkpt>
      <trkpt lat="45.88935240" lon="10.84893260">
        <ele>84.252685</ele>
        <time>2010-01-01T01:17:23Z</time>
      </trkpt>
      <trkpt lat="45.88942680" lon="10.84905460">
        <ele>83.771972</ele>
        <time>2010-01-01T01:17:27Z</time>
      </trkpt>
      <trkpt lat="45.88951770" lon="10.84921350">
        <ele>82.330078</ele>
        <time>2010-01-01T01:17:33Z</time>
      </trkpt>
      <trkpt lat="45.88965070" lon="10.84939680">
        <ele>81.849365</ele>
        <time>2010-01-01T01:17:40Z</time>
      </trkpt>
      <trkpt lat="45.88978860" lon="10.84954000">
        <ele>78.484741</ele>
        <time>2010-01-01T01:17:47Z</time>
      </trkpt>
      <trkpt lat="45.88980570" lon="10.84955830">
        <ele>78.004028</ele>
        <time>2010-01-01T01:17:48Z</time>
      </trkpt>
      <trkpt lat="45.88997410" lon="10.84971830">
        <ele>77.042846</ele>
        <time>2010-01-01T01:17:56Z</time>
      </trkpt>
      <trkpt lat="45.89010620" lon="10.84984270">
        <ele>76.562133</ele>
        <time>2010-01-01T01:18:02Z</time>
      </trkpt>
      <trkpt lat="45.89024170" lon="10.84997260">
        <ele>78.484741</ele>
        <time>2010-01-01T01:18:09Z</time>
      </trkpt>
      <trkpt lat="45.89038540" lon="10.85010950">
        <ele>82.330078</ele>
        <time>2010-01-01T01:18:16Z</time>
      </trkpt>
      <trkpt lat="45.89051950" lon="10.85023640">
        <ele>83.291381</ele>
        <time>2010-01-01T01:18:22Z</time>
      </trkpt>
      <trkpt lat="45.89064780" lon="10.85036840">
        <ele>84.733398</ele>
        <time>2010-01-01T01:18:28Z</time>
      </trkpt>
      <trkpt lat="45.89073740" lon="10.85045410">
        <ele>85.694580</ele>
        <time>2010-01-01T01:18:33Z</time>
      </trkpt>
      <trkpt lat="45.89086700" lon="10.85058450">
        <ele>85.694580</ele>
        <time>2010-01-01T01:18:39Z</time>
      </trkpt>
      <trkpt lat="45.89094580" lon="10.85064230">
        <ele>89.539917</ele>
        <time>2010-01-01T01:18:43Z</time>
      </trkpt>
      <trkpt lat="45.89106870" lon="10.85074040">
        <ele>92.423950</ele>
        <time>2010-01-01T01:18:48Z</time>
      </trkpt>
      <trkpt lat="45.89118410" lon="10.85085640">
        <ele>92.423950</ele>
        <time>2010-01-01T01:18:54Z</time>
      </trkpt>
      <trkpt lat="45.89127680" lon="10.85093470">
        <ele>90.020629</ele>
        <time>2010-01-01T01:18:58Z</time>
      </trkpt>
      <trkpt lat="45.89141860" lon="10.85106720">
        <ele>90.501342</ele>
        <time>2010-01-01T01:19:05Z</time>
      </trkpt>
      <trkpt lat="45.89156600" lon="10.85121170">
        <ele>85.694580</ele>
        <time>2010-01-01T01:19:12Z</time>
      </trkpt>
      <trkpt lat="45.89169700" lon="10.85134340">
        <ele>82.810791</ele>
        <time>2010-01-01T01:19:18Z</time>
      </trkpt>
      <trkpt lat="45.89182530" lon="10.85147290">
        <ele>81.849365</ele>
        <time>2010-01-01T01:19:25Z</time>
      </trkpt>
      <trkpt lat="45.89199950" lon="10.85164370">
        <ele>80.888183</ele>
        <time>2010-01-01T01:19:33Z</time>
      </trkpt>
      <trkpt lat="45.89210510" lon="10.85174590">
        <ele>81.849365</ele>
        <time>2010-01-01T01:19:38Z</time>
      </trkpt>
      <trkpt lat="45.89221300" lon="10.85185340">
        <ele>84.252685</ele>
        <time>2010-01-01T01:19:44Z</time>
      </trkpt>
      <trkpt lat="45.89235990" lon="10.85202040">
        <ele>84.733398</ele>
        <time>2010-01-01T01:19:51Z</time>
      </trkpt>
      <trkpt lat="45.89247400" lon="10.85215970">
        <ele>84.733398</ele>
        <time>2010-01-01T01:19:57Z</time>
      </trkpt>
      <trkpt lat="45.89259100" lon="10.85229600">
        <ele>90.981933</ele>
        <time>2010-01-01T01:20:03Z</time>
      </trkpt>
      <trkpt lat="45.89272050" lon="10.85245180">
        <ele>94.827148</ele>
        <time>2010-01-01T01:20:10Z</time>
      </trkpt>
      <trkpt lat="45.89282770" lon="10.85258350">
        <ele>90.981933</ele>
        <time>2010-01-01T01:20:15Z</time>
      </trkpt>
      <trkpt lat="45.89295690" lon="10.85272870">
        <ele>90.981933</ele>
        <time>2010-01-01T01:20:22Z</time>
      </trkpt>
      <trkpt lat="45.89310480" lon="10.85286010">
        <ele>88.098022</ele>
        <time>2010-01-01T01:20:29Z</time>
      </trkpt>
      <trkpt lat="45.89318270" lon="10.85301090">
        <ele>88.098022</ele>
        <time>2010-01-01T01:20:34Z</time>
      </trkpt>
      <trkpt lat="45.89317070" lon="10.85315230">
        <ele>87.617187</ele>
        <time>2010-01-01T01:20:38Z</time>
      </trkpt>
      <trkpt lat="45.89310650" lon="10.85330450">
        <ele>87.136596</ele>
        <time>2010-01-01T01:20:43Z</time>
      </trkpt>
      <trkpt lat="45.89298450" lon="10.85355680">
        <ele>88.098022</ele>
        <time>2010-01-01T01:20:52Z</time>
      </trkpt>
      <trkpt lat="45.89288060" lon="10.85379320">
        <ele>88.578735</ele>
        <time>2010-01-01T01:21:00Z</time>
      </trkpt>
      <trkpt lat="45.89278270" lon="10.85402250">
        <ele>90.020629</ele>
        <time>2010-01-01T01:21:07Z</time>
      </trkpt>
      <trkpt lat="45.89271440" lon="10.85422200">
        <ele>93.865844</ele>
        <time>2010-01-01T01:21:13Z</time>
      </trkpt>
      <trkpt lat="45.89263870" lon="10.85438880">
        <ele>94.346557</ele>
        <time>2010-01-01T01:21:19Z</time>
      </trkpt>
      <trkpt lat="45.89254690" lon="10.85458770">
        <ele>94.827148</ele>
        <time>2010-01-01T01:21:25Z</time>
      </trkpt>
      <trkpt lat="45.89242780" lon="10.85485400">
        <ele>94.827148</ele>
        <time>2010-01-01T01:21:34Z</time>
      </trkpt>
      <trkpt lat="45.89235510" lon="10.85501250">
        <ele>94.827148</ele>
        <time>2010-01-01T01:21:40Z</time>
      </trkpt>
      <trkpt lat="45.89225810" lon="10.85519170">
        <ele>94.827148</ele>
        <time>2010-01-01T01:21:46Z</time>
      </trkpt>
      <trkpt lat="45.89209940" lon="10.85538910">
        <ele>88.578735</ele>
        <time>2010-01-01T01:21:54Z</time>
      </trkpt>
      <trkpt lat="45.89202310" lon="10.85552400">
        <ele>90.020629</ele>
        <time>2010-01-01T01:21:59Z</time>
      </trkpt>
      <trkpt lat="45.89190480" lon="10.85575110">
        <ele>92.423950</ele>
        <time>2010-01-01T01:22:07Z</time>
      </trkpt>
      <trkpt lat="45.89178120" lon="10.85596850">
        <ele>92.423950</ele>
        <time>2010-01-01T01:22:15Z</time>
      </trkpt>
      <trkpt lat="45.89161930" lon="10.85623090">
        <ele>91.462524</ele>
        <time>2010-01-01T01:22:25Z</time>
      </trkpt>
      <trkpt lat="45.89152220" lon="10.85640680">
        <ele>91.462524</ele>
        <time>2010-01-01T01:22:31Z</time>
      </trkpt>
      <trkpt lat="45.89142100" lon="10.85656970">
        <ele>90.981933</ele>
        <time>2010-01-01T01:22:37Z</time>
      </trkpt>
      <trkpt lat="45.89130640" lon="10.85676800">
        <ele>90.501342</ele>
        <time>2010-01-01T01:22:44Z</time>
      </trkpt>
      <trkpt lat="45.89119330" lon="10.85692650">
        <ele>90.020629</ele>
        <time>2010-01-01T01:22:50Z</time>
      </trkpt>
      <trkpt lat="45.89103700" lon="10.85710260">
        <ele>88.578735</ele>
        <time>2010-01-01T01:22:58Z</time>
      </trkpt>
      <trkpt lat="45.89101580" lon="10.85711560">
        <ele>88.098022</ele>
        <time>2010-01-01T01:22:59Z</time>
      </trkpt>
      <trkpt lat="45.89089550" lon="10.85698970">
        <ele>81.368774</ele>
        <time>2010-01-01T01:23:05Z</time>
      </trkpt>
      <trkpt lat="45.89087550" lon="10.85696330">
        <ele>80.888183</ele>
        <time>2010-01-01T01:23:06Z</time>
      </trkpt>
      <trkpt lat="45.89079980" lon="10.85700710">
        <ele>79.926635</ele>
        <time>2010-01-01T01:23:10Z</time>
      </trkpt>
      <trkpt lat="45.89079560" lon="10.85704670">
        <ele>80.407470</ele>
        <time>2010-01-01T01:23:11Z</time>
      </trkpt>
      <trkpt lat="45.89076050" lon="10.85722950">
        <ele>80.888183</ele>
        <time>2010-01-01T01:23:16Z</time>
      </trkpt>
      <trkpt lat="45.89065170" lon="10.85730160">
        <ele>79.926635</ele>
        <time>2010-01-01T01:23:21Z</time>
      </trkpt>
      <trkpt lat="45.89048930" lon="10.85741750">
        <ele>80.407470</ele>
        <time>2010-01-01T01:23:28Z</time>
      </trkpt>
      <trkpt lat="45.89031850" lon="10.85757450">
        <ele>80.888183</ele>
        <time>2010-01-01T01:23:36Z</time>
      </trkpt>
      <trkpt lat="45.89017080" lon="10.85776810">
        <ele>80.407470</ele>
        <time>2010-01-01T01:23:44Z</time>
      </trkpt>
      <trkpt lat="45.89013930" lon="10.85782040">
        <ele>80.407470</ele>
        <time>2010-01-01T01:23:46Z</time>
      </trkpt>
      <trkpt lat="45.89006680" lon="10.85793800">
        <ele>80.407470</ele>
        <time>2010-01-01T01:23:50Z</time>
      </trkpt>
      <trkpt lat="45.88995180" lon="10.85811930">
        <ele>80.407470</ele>
        <time>2010-01-01T01:23:57Z</time>
      </trkpt>
      <trkpt lat="45.88981820" lon="10.85834750">
        <ele>81.849365</ele>
        <time>2010-01-01T01:24:06Z</time>
      </trkpt>
      <trkpt lat="45.88965560" lon="10.85862200">
        <ele>83.771972</ele>
        <time>2010-01-01T01:24:16Z</time>
      </trkpt>
      <trkpt lat="45.88956010" lon="10.85876450">
        <ele>83.771972</ele>
        <time>2010-01-01T01:24:21Z</time>
      </trkpt>
      <trkpt lat="45.88944110" lon="10.85893460">
        <ele>83.771972</ele>
        <time>2010-01-01T01:24:28Z</time>
      </trkpt>
      <trkpt lat="45.88931760" lon="10.85909660">
        <ele>83.291381</ele>
        <time>2010-01-01T01:24:35Z</time>
      </trkpt>
      <trkpt lat="45.88917420" lon="10.85931820">
        <ele>82.330078</ele>
        <time>2010-01-01T01:24:43Z</time>
      </trkpt>
      <trkpt lat="45.88905190" lon="10.85934370">
        <ele>78.965454</ele>
        <time>2010-01-01T01:24:48Z</time>
      </trkpt>
      <trkpt lat="45.88897410" lon="10.85939690">
        <ele>78.004028</ele>
        <time>2010-01-01T01:24:51Z</time>
      </trkpt>
      <trkpt lat="45.88896080" lon="10.85958840">
        <ele>77.523437</ele>
        <time>2010-01-01T01:24:57Z</time>
      </trkpt>
      <trkpt lat="45.88893470" lon="10.85971090">
        <ele>78.965454</ele>
        <time>2010-01-01T01:25:00Z</time>
      </trkpt>
      <trkpt lat="45.88883590" lon="10.85995790">
        <ele>81.368774</ele>
        <time>2010-01-01T01:25:08Z</time>
      </trkpt>
      <trkpt lat="45.88872610" lon="10.86025070">
        <ele>82.810791</ele>
        <time>2010-01-01T01:25:18Z</time>
      </trkpt>
      <trkpt lat="45.88866380" lon="10.86052560">
        <ele>86.656005</ele>
        <time>2010-01-01T01:25:26Z</time>
      </trkpt>
      <trkpt lat="45.88861380" lon="10.86076530">
        <ele>90.501342</ele>
        <time>2010-01-01T01:25:33Z</time>
      </trkpt>
      <trkpt lat="45.88851120" lon="10.86101370">
        <ele>87.136596</ele>
        <time>2010-01-01T01:25:41Z</time>
      </trkpt>
      <trkpt lat="45.88840750" lon="10.86122080">
        <ele>82.810791</ele>
        <time>2010-01-01T01:25:48Z</time>
      </trkpt>
      <trkpt lat="45.88830920" lon="10.86142390">
        <ele>80.407470</ele>
        <time>2010-01-01T01:25:55Z</time>
      </trkpt>
      <trkpt lat="45.88821590" lon="10.86164670">
        <ele>79.926635</ele>
        <time>2010-01-01T01:26:02Z</time>
      </trkpt>
      <trkpt lat="45.88812940" lon="10.86186370">
        <ele>79.446044</ele>
        <time>2010-01-01T01:26:09Z</time>
      </trkpt>
      <trkpt lat="45.88803310" lon="10.86211620">
        <ele>77.523437</ele>
        <time>2010-01-01T01:26:17Z</time>
      </trkpt>
      <trkpt lat="45.88794350" lon="10.86236920">
        <ele>75.120239</ele>
        <time>2010-01-01T01:26:25Z</time>
      </trkpt>
      <trkpt lat="45.88792990" lon="10.86240560">
        <ele>76.562133</ele>
        <time>2010-01-01T01:26:26Z</time>
      </trkpt>
      <trkpt lat="45.88781180" lon="10.86239050">
        <ele>75.600830</ele>
        <time>2010-01-01T01:26:31Z</time>
      </trkpt>
      <trkpt lat="45.88773520" lon="10.86229930">
        <ele>75.600830</ele>
        <time>2010-01-01T01:26:35Z</time>
      </trkpt>
      <trkpt lat="45.88770940" lon="10.86227090">
        <ele>75.120239</ele>
        <time>2010-01-01T01:26:36Z</time>
      </trkpt>
      <trkpt lat="45.88756330" lon="10.86210330">
        <ele>74.158813</ele>
        <time>2010-01-01T01:26:43Z</time>
      </trkpt>
      <trkpt lat="45.88741710" lon="10.86194350">
        <ele>73.197631</ele>
        <time>2010-01-01T01:26:51Z</time>
      </trkpt>
      <trkpt lat="45.88729680" lon="10.86178810">
        <ele>73.678222</ele>
        <time>2010-01-01T01:26:57Z</time>
      </trkpt>
      <trkpt lat="45.88712240" lon="10.86158660">
        <ele>74.639526</ele>
        <time>2010-01-01T01:27:06Z</time>
      </trkpt>
      <trkpt lat="45.88697610" lon="10.86143670">
        <ele>73.678222</ele>
        <time>2010-01-01T01:27:13Z</time>
      </trkpt>
      <trkpt lat="45.88680000" lon="10.86124650">
        <ele>72.716918</ele>
        <time>2010-01-01T01:27:22Z</time>
      </trkpt>
      <trkpt lat="45.88664800" lon="10.86116490">
        <ele>72.716918</ele>
        <time>2010-01-01T01:27:29Z</time>
      </trkpt>
      <trkpt lat="45.88642040" lon="10.86091790">
        <ele>73.197631</ele>
        <time>2010-01-01T01:27:40Z</time>
      </trkpt>
      <trkpt lat="45.88625570" lon="10.86068560">
        <ele>72.716918</ele>
        <time>2010-01-01T01:27:49Z</time>
      </trkpt>
      <trkpt lat="45.88613210" lon="10.86050170">
        <ele>71.274902</ele>
        <time>2010-01-01T01:27:57Z</time>
      </trkpt>
      <trkpt lat="45.88595530" lon="10.86025150">
        <ele>70.794189</ele>
        <time>2010-01-01T01:28:06Z</time>
      </trkpt>
      <trkpt lat="45.88581440" lon="10.86007550">
        <ele>71.274902</ele>
        <time>2010-01-01T01:28:14Z</time>
      </trkpt>
      <trkpt lat="45.88567520" lon="10.85991180">
        <ele>71.274902</ele>
        <time>2010-01-01T01:28:21Z</time>
      </trkpt>
      <trkpt lat="45.88551170" lon="10.85967800">
        <ele>70.313476</ele>
        <time>2010-01-01T01:28:30Z</time>
      </trkpt>
      <trkpt lat="45.88539730" lon="10.85955130">
        <ele>71.274902</ele>
        <time>2010-01-01T01:28:36Z</time>
      </trkpt>
      <trkpt lat="45.88525750" lon="10.85945680">
        <ele>71.755493</ele>
        <time>2010-01-01T01:28:42Z</time>
      </trkpt>
      <trkpt lat="45.88511190" lon="10.85931380">
        <ele>72.236206</ele>
        <time>2010-01-01T01:28:49Z</time>
      </trkpt>
      <trkpt lat="45.88492690" lon="10.85915380">
        <ele>72.236206</ele>
        <time>2010-01-01T01:28:58Z</time>
      </trkpt>
      <trkpt lat="45.88475490" lon="10.85910890">
        <ele>72.236206</ele>
        <time>2010-01-01T01:29:05Z</time>
      </trkpt>
      <trkpt lat="45.88457930" lon="10.85914920">
        <ele>72.236206</ele>
        <time>2010-01-01T01:29:12Z</time>
      </trkpt>
      <trkpt lat="45.88436810" lon="10.85927360">
        <ele>74.158813</ele>
        <time>2010-01-01T01:29:21Z</time>
      </trkpt>
      <trkpt lat="45.88424850" lon="10.85942160">
        <ele>75.120239</ele>
        <time>2010-01-01T01:29:28Z</time>
      </trkpt>
      <trkpt lat="45.88413460" lon="10.85958910">
        <ele>77.042846</ele>
        <time>2010-01-01T01:29:34Z</time>
      </trkpt>
      <trkpt lat="45.88409160" lon="10.85965180">
        <ele>77.042846</ele>
        <time>2010-01-01T01:29:37Z</time>
      </trkpt>
      <trkpt lat="45.88397640" lon="10.85965930">
        <ele>77.042846</ele>
        <time>2010-01-01T01:29:41Z</time>
      </trkpt>
      <trkpt lat="45.88392370" lon="10.85960050">
        <ele>76.562133</ele>
        <time>2010-01-01T01:29:44Z</time>
      </trkpt>
      <trkpt lat="45.88384380" lon="10.85951860">
        <ele>76.562133</ele>
        <time>2010-01-01T01:29:48Z</time>
      </trkpt>
      <trkpt lat="45.88367820" lon="10.85936220">
        <ele>75.120239</ele>
        <time>2010-01-01T01:29:56Z</time>
      </trkpt>
      <trkpt lat="45.88354030" lon="10.85923870">
        <ele>75.600830</ele>
        <time>2010-01-01T01:30:02Z</time>
      </trkpt>
      <trkpt lat="45.88339640" lon="10.85911300">
        <ele>75.600830</ele>
        <time>2010-01-01T01:30:09Z</time>
      </trkpt>
      <trkpt lat="45.88325990" lon="10.85897990">
        <ele>75.600830</ele>
        <time>2010-01-01T01:30:16Z</time>
      </trkpt>
      <trkpt lat="45.88310830" lon="10.85886890">
        <ele>76.562133</ele>
        <time>2010-01-01T01:30:22Z</time>
      </trkpt>
      <trkpt lat="45.88295410" lon="10.85882920">
        <ele>76.562133</ele>
        <time>2010-01-01T01:30:29Z</time>
      </trkpt>
      <trkpt lat="45.88278550" lon="10.85876420">
        <ele>77.523437</ele>
        <time>2010-01-01T01:30:36Z</time>
      </trkpt>
      <trkpt lat="45.88265610" lon="10.85870380">
        <ele>78.004028</ele>
        <time>2010-01-01T01:30:41Z</time>
      </trkpt>
      <trkpt lat="45.88247640" lon="10.85858260">
        <ele>77.523437</ele>
        <time>2010-01-01T01:30:49Z</time>
      </trkpt>
      <trkpt lat="45.88229560" lon="10.85847430">
        <ele>78.004028</ele>
        <time>2010-01-01T01:30:57Z</time>
      </trkpt>
      <trkpt lat="45.88206690" lon="10.85836400">
        <ele>76.562133</ele>
        <time>2010-01-01T01:31:07Z</time>
      </trkpt>
      <trkpt lat="45.88191120" lon="10.85827640">
        <ele>76.081420</ele>
        <time>2010-01-01T01:31:13Z</time>
      </trkpt>
      <trkpt lat="45.88177970" lon="10.85821010">
        <ele>75.600830</ele>
        <time>2010-01-01T01:31:19Z</time>
      </trkpt>
      <trkpt lat="45.88160570" lon="10.85808430">
        <ele>75.600830</ele>
        <time>2010-01-01T01:31:27Z</time>
      </trkpt>
      <trkpt lat="45.88144850" lon="10.85797600">
        <ele>75.600830</ele>
        <time>2010-01-01T01:31:34Z</time>
      </trkpt>
      <trkpt lat="45.88128640" lon="10.85787640">
        <ele>76.081420</ele>
        <time>2010-01-01T01:31:41Z</time>
      </trkpt>
      <trkpt lat="45.88122620" lon="10.85782090">
        <ele>76.081420</ele>
        <time>2010-01-01T01:31:44Z</time>
      </trkpt>
    </trkseg>
  </trk>
</gpx>

